BG4WDV-11 Weather Reports


time (UTC)temp
F
wind
direction
speed
knots
gust
knots
rain 1hr
in
rain 24hr
in
rain mn
in
humidity
%
barometer
mb
20260902213039 77 0 0.0 0.9 0.00 0.00 0.00 94 1007.5
20260902212939 77 0 0.0 0.9 0.00 0.00 0.00 94 1007.5
20260902212839 77 0 0.0 1.7 0.00 0.00 0.00 94 1007.4
20260902212739 77 225 0.0 1.7 0.00 0.00 0.00 94 1007.5
20260902212639 77 0 0.0 1.7 0.00 0.00 0.00 94 1007.5
20260902212539 77 180 0.0 1.7 0.00 0.00 0.00 94 1007.5
20260902212439 77 180 0.0 1.7 0.00 0.00 0.00 94 1007.5
20260902212339 77 180 0.0 1.7 0.00 0.00 0.00 94 1007.4
20260902212239 77 315 0.0 1.7 0.00 0.00 0.00 94 1007.5
20260902212139 77 0 0.0 1.7 0.00 0.00 0.00 94 1007.4
20260902212039 77 180 0.0 1.7 0.00 0.00 0.00 94 1007.3
20260902211939 77 225 0.0 1.7 0.00 0.00 0.00 94 1007.5
20260902211839 77 180 0.0 1.7 0.00 0.00 0.00 94 1007.4
20260902211739 77 270 0.0 1.7 0.00 0.00 0.00 94 1007.3
20260902211639 77 180 0.0 1.7 0.00 0.00 0.00 94 1007.3
20260902211539 77 180 0.0 1.7 0.00 0.00 0.00 94 1007.5
20260902211439 77 180 0.0 1.7 0.00 0.00 0.00 94 1007.3
20260902211339 77 0 0.0 1.7 0.00 0.00 0.00 94 1007.4
20260902211239 77 180 0.0 1.7 0.00 0.00 0.00 94 1007.4
20260902211139 77 180 0.0 1.7 0.00 0.00 0.00 94 1007.5
20260902211039 77 180 0.0 1.7 0.00 0.00 0.00 94 1007.4
20260902210939 77 225 0.0 1.7 0.00 0.00 0.00 94 1007.4
20260902210839 77 225 0.0 1.7 0.00 0.00 0.00 94 1007.4
20260902210739 76 0 0.0 1.7 0.00 0.00 0.00 94 1007.3
20260902210639 77 180 0.0 1.7 0.00 0.00 0.00 94 1007.4
20260902210539 77 0 0.0 1.7 0.00 0.00 0.00 94 1007.3
20260902210439 76 0 0.0 1.7 0.00 0.00 0.00 94 1007.4
20260902210339 76 0 0.0 1.7 0.00 0.00 0.00 94 1007.5
20260902210239 76 0 0.0 1.7 0.00 0.00 0.00 94 1007.3
20260902210139 76 0 0.0 1.7 0.00 0.00 0.00 94 1007.2
20260902210039 76 225 0.0 1.7 0.00 0.00 0.00 94 1007.3
20260902205939 76 225 0.0 1.7 0.00 0.00 0.00 94 1007.3
20260902205839 76 0 0.0 1.7 0.00 0.00 0.00 94 1007.3
20260902205739 76 225 0.0 1.7 0.00 0.00 0.00 94 1007.2
20260902205639 76 0 0.0 1.7 0.00 0.00 0.00 94 1007.4
20260902205539 76 315 0.0 1.7 0.00 0.00 0.00 94 1007.4
20260902205439 76 315 0.0 1.7 0.00 0.00 0.00 94 1007.4
20260902205339 76 180 0.0 1.7 0.00 0.00 0.00 94 1007.2
20260902205239 76 180 0.0 1.7 0.00 0.00 0.00 94 1007.2
20260902205139 76 0 0.0 1.7 0.00 0.00 0.00 94 1007.3
20260902205039 76 45 0.0 1.7 0.00 0.00 0.00 94 1007.2
20260902204939 76 0 0.0 1.7 0.00 0.00 0.00 94 1007.3
20260902204839 76 180 0.0 1.7 0.00 0.00 0.00 94 1007.3
20260902204739 76 180 0.0 1.7 0.00 0.00 0.00 94 1007.3
20260902204639 76 0 0.0 1.7 0.00 0.00 0.00 94 1007.5
20260902204539 76 180 0.0 1.7 0.00 0.00 0.00 94 1007.4
20260902204439 76 180 0.0 1.7 0.00 0.00 0.00 94 1007.3
20260902204338 76 0 1.7 0.0 0.00 0.00 0.00 94 1007.2
20260902204239 76 315 0.0 1.7 0.00 0.00 0.00 94 1007.1
20260902204139 76 180 0.0 1.7 0.00 0.00 0.00 94 1007.4
20260902204039 76 0 0.0 1.7 0.00 0.00 0.00 94 1007.4
20260902203939 76 270 0.0 1.7 0.00 0.00 0.00 94 1007.4
20260902203838 76 0 3.5 0.0 0.00 0.00 0.00 94 1007.4
20260902203739 76 180 0.0 3.5 0.00 0.00 0.00 94 1007.3
20260902203638 76 270 0.0 3.5 0.00 0.00 0.00 94 1007.3
20260902203539 77 180 0.0 3.5 0.00 0.00 0.00 94 1007.3
20260902203439 77 180 0.0 3.5 0.00 0.00 0.00 94 1007.3
20260902203339 77 180 0.0 3.5 0.00 0.00 0.00 94 1007.2
20260902203239 77 180 0.0 3.5 0.00 0.00 0.00 94 1007.3
20260902203138 77 180 0.0 3.5 0.00 0.00 0.00 95 1007.2
20260902203039 77 180 0.0 3.5 0.00 0.00 0.00 94 1007.3
20260902202939 77 180 0.9 3.5 0.00 0.00 0.00 94 1007.1
20260902202839 77 270 0.0 2.6 0.00 0.00 0.00 95 1007.2
20260902202738 77 45 0.0 2.6 0.00 0.00 0.00 95 1007.2
20260902202638 77 270 0.0 1.7 0.00 0.00 0.00 95 1007.3
20260902202539 77 0 0.0 2.6 0.00 0.00 0.00 95 1007.2
20260902202438 77 0 2.6 0.0 0.00 0.00 0.00 95 1007.0
20260902202338 77 315 0.0 2.6 0.00 0.00 0.00 95 1007.1
20260902202238 77 180 0.0 2.6 0.00 0.00 0.00 95 1007.1
20260902202139 77 0 0.0 2.6 0.00 0.00 0.00 95 1007.1
20260902202039 77 0 0.0 2.6 0.00 0.00 0.00 95 1007.0
20260902201939 77 0 0.0 2.6 0.00 0.00 0.00 95 1007.2
20260902201838 77 315 0.0 2.6 0.00 0.00 0.00 95 1007.0
20260902201738 77 270 0.0 2.6 0.00 0.00 0.00 95 1007.0
20260902201639 77 0 0.0 2.6 0.00 0.00 0.00 95 1006.9
20260902201539 77 225 0.0 1.7 0.00 0.00 0.00 95 1006.9
20260902201438 77 0 0.0 2.6 0.00 0.00 0.00 95 1007.0
20260902201338 77 0 0.0 2.6 0.00 0.00 0.00 95 1006.9
20260902201238 77 180 0.0 2.6 0.00 0.00 0.00 95 1007.0
20260902201139 77 225 0.0 2.6 0.00 0.00 0.00 95 1006.8
20260902201039 77 0 0.0 2.6 0.00 0.00 0.00 95 1006.9
20260902200938 77 0 0.0 2.6 0.00 0.00 0.00 95 1007.0
20260902200838 77 225 0.0 2.6 0.00 0.00 0.00 95 1006.9
20260902200739 77 315 0.0 2.6 0.00 0.00 0.00 95 1007.1
20260902200639 77 45 0.9 2.6 0.00 0.00 0.00 95 1006.9
20260902200538 77 270 0.9 2.6 0.00 0.00 0.00 95 1006.9
20260902200438 77 315 0.0 2.6 0.00 0.00 0.00 95 1006.9
20260902200338 77 0 0.0 0.9 0.00 0.00 0.00 95 1006.8
20260902200239 77 0 0.0 0.9 0.00 0.00 0.00 95 1006.9
20260902200138 77 0 0.0 0.9 0.00 0.00 0.00 95 1007.0
20260902200038 77 0 0.0 1.7 0.00 0.00 0.00 95 1006.9
20260902195938 77 0 0.0 1.7 0.00 0.00 0.00 95 1006.8
20260902195838 77 180 0.0 1.7 0.00 0.00 0.00 95 1007.0
20260902195739 77 0 0.0 1.7 0.00 0.00 0.00 95 1006.8
20260902195639 77 225 0.0 1.7 0.00 0.00 0.00 95 1006.9
20260902195538 77 225 0.0 1.7 0.00 0.00 0.00 95 1006.8
20260902195438 77 225 0.0 1.7 0.00 0.00 0.00 95 1006.9
20260902195338 77 0 0.0 1.7 0.00 0.00 0.00 95 1006.8
20260902195239 77 315 0.0 1.7 0.00 0.00 0.00 95 1007.0
20260902195138 77 180 0.0 1.7 0.00 0.00 0.00 95 1006.9
20260902195038 77 0 0.0 1.7 0.00 0.00 0.00 95 1006.9
20260902194938 77 180 0.0 1.7 0.00 0.00 0.00 95 1006.8
20260902194838 77 180 0.0 1.7 0.00 0.00 0.00 95 1006.8
20260902194739 77 180 0.0 1.7 0.00 0.00 0.00 95 1006.8
20260902194639 77 0 0.0 1.7 0.00 0.00 0.00 95 1007.1
20260902194538 77 225 0.0 1.7 0.00 0.00 0.00 95 1006.8
20260902194438 77 225 0.0 1.7 0.00 0.00 0.00 95 1006.9
20260902194339 77 0 0.0 1.7 0.00 0.00 0.00 95 1006.9
20260902194238 77 180 0.0 1.7 0.00 0.00 0.00 95 1007.0
20260902194138 77 180 0.0 1.7 0.00 0.00 0.00 95 1006.8
20260902194038 77 0 0.0 1.7 0.00 0.00 0.00 95 1006.9
20260902193938 77 0 0.0 2.6 0.00 0.00 0.00 95 1007.0
20260902193839 77 0 0.0 2.6 0.00 0.00 0.00 95 1006.9
20260902193738 77 180 0.0 2.6 0.00 0.00 0.00 95 1006.8
20260902193638 77 225 0.0 2.6 0.00 0.00 0.00 95 1006.7
20260902193538 77 180 0.0 2.6 0.00 0.00 0.00 95 1006.8
20260902193438 77 180 0.0 2.6 0.00 0.00 0.00 95 1006.7
20260902193339 77 225 0.0 2.6 0.00 0.00 0.00 95 1007.0
20260902193239 77 0 0.0 2.6 0.00 0.00 0.00 95 1006.9
20260902193138 77 270 0.9 2.6 0.00 0.00 0.00 95 1006.9
20260902193038 77 0 0.0 2.6 0.00 0.00 0.00 95 1006.8
20260902192938 77 0 0.0 2.6 0.00 0.00 0.00 95 1006.8
20260902192839 77 0 0.0 2.6 0.00 0.00 0.00 95 1006.9
20260902192739 77 0 0.0 2.6 0.00 0.00 0.00 95 1006.9
20260902192639 77 225 0.0 2.6 0.00 0.00 0.00 95 1006.9
20260902192538 77 180 0.0 2.6 0.00 0.00 0.00 95 1006.8
20260902192439 77 180 0.9 2.6 0.00 0.00 0.00 95 1007.0
20260902192339 77 180 0.0 1.7 0.00 0.00 0.00 95 1006.9
20260902192239 77 0 0.0 0.9 0.00 0.00 0.00 95 1006.9
20260902192139 77 180 0.0 0.9 0.00 0.00 0.00 95 1006.8
20260902192038 77 45 0.0 1.7 0.00 0.00 0.00 95 1006.8
20260902191939 77 270 0.0 2.6 0.00 0.00 0.00 95 1006.8
20260902191839 77 0 0.0 2.6 0.00 0.00 0.00 95 1006.8
20260902191739 77 0 0.0 2.6 0.00 0.00 0.00 95 1006.9
20260902191538 77 0 0.0 2.6 0.00 0.00 0.00 95 1006.9
20260902191439 77 0 0.0 2.6 0.00 0.00 0.00 95 1006.8
20260902191339 77 0 0.0 2.6 0.00 0.00 0.00 95 1006.8
20260902191239 77 0 0.0 2.6 0.00 0.00 0.00 95 1006.9
20260902191138 77 270 0.0 2.6 0.00 0.00 0.00 95 1006.8
20260902191038 77 315 0.0 2.6 0.00 0.00 0.00 95 1006.8
20260902190939 77 0 0.0 0.9 0.00 0.00 0.00 95 1006.8
20260902190839 77 225 0.0 0.9 0.00 0.00 0.00 95 1006.9
20260902190738 77 0 0.0 0.9 0.00 0.00 0.00 95 1006.9
20260902190638 77 0 0.0 0.9 0.00 0.00 0.00 95 1006.9
20260902190538 77 0 0.0 0.9 0.00 0.00 0.00 95 1006.8
20260902190439 77 0 0.0 0.9 0.00 0.00 0.00 95 1006.8
20260902190339 77 0 0.0 0.9 0.00 0.00 0.00 95 1006.8
20260902190238 77 225 0.0 0.9 0.00 0.00 0.00 95 1006.7
20260902190138 77 0 0.0 0.9 0.00 0.00 0.00 95 1006.6
20260902190038 77 0 0.0 0.9 0.00 0.00 0.00 95 1006.8
20260902185938 77 0 0.0 0.9 0.00 0.00 0.00 95 1006.8
20260902185838 77 0 0.0 0.9 0.00 0.00 0.00 95 1006.8
20260902185738 77 225 0.0 0.9 0.00 0.00 0.00 95 1006.7
20260902185638 77 225 0.0 0.9 0.00 0.00 0.00 95 1006.7
20260902185538 77 225 0.0 0.9 0.00 0.00 0.00 95 1006.7
20260902185438 77 0 0.0 0.9 0.00 0.00 0.00 95 1006.6
20260902185338 77 0 0.0 0.9 0.00 0.00 0.00 95 1006.6
20260902185238 76 0 0.0 1.7 0.00 0.00 0.00 95 1006.6
20260902185138 76 180 0.0 1.7 0.00 0.00 0.00 95 1006.6
20260902185038 76 315 0.0 1.7 0.00 0.00 0.00 95 1006.8
20260902184938 76 180 0.0 1.7 0.00 0.00 0.00 95 1006.6
20260902184838 76 0 0.0 1.7 0.00 0.00 0.00 95 1006.7
20260902184738 76 270 0.0 1.7 0.00 0.00 0.00 95 1006.7
20260902184638 76 180 0.0 1.7 0.00 0.00 0.00 95 1006.6
20260902184538 76 0 0.0 1.7 0.00 0.00 0.00 95 1006.6
20260902184438 76 180 0.0 1.7 0.00 0.00 0.00 95 1006.6
20260902184338 76 315 0.0 1.7 0.00 0.00 0.00 95 1006.6
20260902184238 76 0 0.0 1.7 0.00 0.00 0.00 95 1006.7
20260902184138 76 0 0.0 1.7 0.00 0.00 0.00 95 1006.6
20260902184038 76 0 0.0 1.7 0.00 0.00 0.00 95 1006.6
20260902183938 76 225 0.0 1.7 0.00 0.00 0.00 95 1006.7
20260902183838 76 0 0.0 1.7 0.00 0.00 0.00 95 1006.6
20260902183738 76 0 0.0 1.7 0.00 0.00 0.00 95 1006.7
20260902183638 76 315 0.0 1.7 0.00 0.00 0.00 95 1006.6
20260902183538 76 225 0.0 1.7 0.00 0.00 0.00 95 1006.6
20260902183438 76 315 0.0 0.9 0.00 0.00 0.00 95 1006.7
20260902183338 76 0 0.0 0.9 0.00 0.00 0.00 95 1006.7
20260902183238 76 0 0.0 1.7 0.00 0.00 0.00 95 1006.7
20260902183138 76 0 0.0 1.7 0.00 0.00 0.00 95 1006.6
20260902183038 76 0 0.0 1.7 0.00 0.00 0.00 95 1006.6
20260902182938 76 0 0.0 1.7 0.00 0.00 0.00 95 1006.5
20260902182838 76 0 0.0 1.7 0.00 0.00 0.00 95 1006.6
20260902182738 76 0 0.0 1.7 0.00 0.00 0.00 95 1006.5
20260902182638 76 180 0.0 1.7 0.00 0.00 0.00 95 1006.7
20260902182538 76 225 0.0 1.7 0.00 0.00 0.00 95 1006.6
20260902182338 76 315 0.0 1.7 0.00 0.00 0.00 95 1006.7
20260902182238 76 0 0.0 1.7 0.00 0.00 0.00 95 1006.6
20260902182138 76 315 0.0 1.7 0.00 0.00 0.00 95 1006.7
20260902182038 76 180 0.0 1.7 0.00 0.00 0.00 95 1006.6
20260902181938 76 0 0.0 2.6 0.00 0.00 0.00 95 1006.7
20260902181838 76 180 0.0 2.6 0.00 0.00 0.00 95 1006.7
20260902181738 76 0 0.0 2.6 0.00 0.00 0.00 95 1006.8
20260902181638 76 0 0.0 2.6 0.00 0.00 0.00 95 1006.6
20260902181538 76 225 0.0 2.6 0.00 0.00 0.00 95 1006.8
20260902181438 76 0 0.0 2.6 0.00 0.00 0.00 95 1006.8
20260902181338 76 180 0.0 2.6 0.00 0.00 0.00 95 1006.7
20260902181238 76 0 0.0 2.6 0.00 0.00 0.00 95 1006.8
20260902181138 76 0 0.0 2.6 0.00 0.00 0.00 95 1006.9
20260902181038 76 315 0.0 2.6 0.00 0.00 0.00 95 1006.8
20260902180938 76 315 0.0 2.6 0.00 0.00 0.00 95 1006.8
20260902180838 76 0 0.0 2.6 0.00 0.00 0.00 95 1006.8
20260902180738 76 0 0.0 2.6 0.00 0.00 0.00 95 1006.9
20260902180638 76 0 0.0 2.6 0.00 0.00 0.00 95 1006.9
20260902180538 76 0 0.0 2.6 0.00 0.00 0.00 95 1007.0
20260902180438 76 225 0.0 2.6 0.00 0.00 0.00 95 1006.8
20260902180338 76 0 0.0 2.6 0.00 0.00 0.00 95 1006.8
20260902180238 76 0 0.0 2.6 0.00 0.00 0.00 95 1006.8
20260902180138 76 0 0.0 2.6 0.00 0.00 0.00 95 1006.8
20260902180038 76 0 0.0 2.6 0.00 0.00 0.00 95 1006.8
20260902175938 76 315 0.0 2.6 0.00 0.00 0.00 95 1007.0
20260902175838 76 0 0.0 2.6 0.00 0.00 0.00 95 1006.9
20260902175738 76 180 0.0 2.6 0.00 0.00 0.00 95 1007.0
20260902175638 76 0 0.0 2.6 0.00 0.00 0.00 95 1007.0
20260902175538 76 180 0.0 2.6 0.00 0.00 0.00 95 1006.9
20260902175438 76 180 0.0 2.6 0.00 0.00 0.00 95 1007.1
20260902175338 76 180 0.0 2.6 0.00 0.00 0.00 95 1007.1
20260902175238 76 180 0.0 2.6 0.00 0.00 0.00 95 1007.2
20260902175138 76 0 0.9 2.6 0.00 0.00 0.00 95 1007.1
20260902175038 76 315 0.9 2.6 0.00 0.00 0.00 95 1007.0
20260902174938 76 315 0.9 2.6 0.00 0.00 0.00 95 1007.0
20260902174838 76 270 0.9 2.6 0.00 0.00 0.00 95 1007.1
20260902174737 76 270 0.0 2.6 0.00 0.00 0.00 95 1007.2
20260902174638 76 270 0.0 2.6 0.00 0.00 0.00 95 1007.2
20260902174538 76 225 0.0 2.6 0.00 0.00 0.00 95 1007.1
20260902174438 76 180 0.0 2.6 0.00 0.00 0.00 95 1007.3
20260902174338 76 180 0.0 2.6 0.00 0.00 0.00 95 1007.2
20260902174238 76 270 0.0 2.6 0.00 0.00 0.00 95 1007.1
20260902174138 76 225 0.0 2.6 0.00 0.00 0.00 95 1007.1
20260902174038 76 0 0.0 2.6 0.00 0.00 0.00 95 1007.3
20260902173938 76 0 0.0 2.6 0.00 0.00 0.00 95 1007.3
20260902173838 76 270 0.0 3.5 0.00 0.00 0.00 95 1007.2
20260902173738 76 180 0.0 3.5 0.00 0.00 0.00 95 1007.2
20260902173638 76 0 0.0 3.5 0.00 0.00 0.00 95 1007.2
20260902173538 76 45 0.0 3.5 0.00 0.00 0.00 95 1007.2
20260902173438 76 270 0.9 3.5 0.00 0.00 0.00 95 1007.2
20260902173338 76 315 1.7 3.5 0.00 0.00 0.00 95 1007.2
20260902173238 76 45 0.9 3.5 0.00 0.00 0.00 95 1007.3
20260902173138 76 45 0.0 3.5 0.00 0.00 0.00 95 1007.2
20260902173038 76 270 0.0 3.5 0.00 0.00 0.00 95 1007.2
20260902172938 76 315 0.0 3.5 0.00 0.00 0.00 95 1007.4
20260902172838 76 0 0.0 2.6 0.00 0.00 0.00 95 1007.2
20260902172738 76 180 0.0 2.6 0.00 0.00 0.00 95 1007.4
20260902172538 76 180 0.0 2.6 0.00 0.00 0.00 95 1007.3
20260902172438 76 270 0.0 2.6 0.00 0.00 0.00 95 1007.3
20260902172338 76 315 0.0 2.6 0.00 0.00 0.00 95 1007.2
20260902172238 76 180 0.9 2.6 0.00 0.00 0.00 95 1007.3
20260902172138 76 0 0.9 2.6 0.00 0.00 0.00 95 1007.4
20260902172038 76 180 0.0 2.6 0.00 0.00 0.00 95 1007.2
20260902171938 76 180 0.0 2.6 0.00 0.00 0.00 95 1007.3
20260902171838 76 270 0.0 2.6 0.00 0.00 0.00 95 1007.4
20260902171738 76 45 0.9 2.6 0.00 0.00 0.00 95 1007.3
20260902171638 76 225 0.0 2.6 0.00 0.00 0.00 95 1007.4
20260902171537 76 270 0.0 2.6 0.00 0.00 0.00 95 1007.3
20260902171438 76 0 0.0 2.6 0.00 0.00 0.00 95 1007.5
20260902171338 76 0 0.0 3.5 0.00 0.00 0.00 95 1007.3
20260902171238 76 180 0.0 3.5 0.00 0.00 0.00 95 1007.4
20260902171138 76 180 0.0 3.5 0.00 0.00 0.00 95 1007.4
20260902171037 76 270 0.0 3.5 0.00 0.00 0.00 95 1007.4
20260902170938 76 0 0.9 3.5 0.00 0.00 0.00 95 1007.4
20260902170838 76 315 0.0 3.5 0.00 0.00 0.00 95 1007.5
20260902170738 76 315 0.0 3.5 0.00 0.00 0.00 95 1007.4
20260902170638 76 270 0.0 3.5 0.00 0.00 0.00 95 1007.4
20260902170537 76 315 0.9 3.5 0.00 0.00 0.00 95 1007.4
20260902170438 76 315 0.0 3.5 0.00 0.00 0.00 95 1007.4
20260902170338 76 0 0.0 2.6 0.00 0.00 0.00 95 1007.4
20260902170238 76 0 0.0 3.5 0.00 0.00 0.00 95 1007.4
20260902170138 76 315 0.0 3.5 0.00 0.00 0.00 95 1007.5
20260902170037 76 180 0.0 5.2 0.00 0.00 0.00 95 1007.3
20260902165938 76 180 0.0 5.2 0.00 0.00 0.00 95 1007.4
20260902165838 76 270 0.0 5.2 0.00 0.00 0.00 95 1007.4
20260902165738 76 225 0.9 5.2 0.00 0.00 0.00 95 1007.3
20260902165637 76 45 0.9 5.2 0.00 0.00 0.00 95 1007.3
20260902165537 76 0 0.9 5.2 0.00 0.00 0.00 95 1007.4
20260902165438 76 0 0.9 5.2 0.00 0.00 0.00 95 1007.5
20260902165338 76 45 0.9 5.2 0.00 0.00 0.00 95 1007.4
20260902165238 76 45 0.9 5.2 0.00 0.00 0.00 95 1007.3
20260902165137 76 45 1.7 5.2 0.00 0.00 0.00 95 1007.4
20260902165038 76 45 0.9 5.2 0.00 0.00 0.00 95 1007.5
20260902164938 76 45 0.0 3.5 0.00 0.00 0.00 95 1007.4
20260902164838 76 315 0.9 3.5 0.00 0.00 0.00 95 1007.4
20260902164737 76 180 0.9 3.5 0.00 0.00 0.00 95 1007.5
20260902164637 76 315 0.9 3.5 0.00 0.00 0.00 95 1007.6
20260902164538 76 180 0.9 4.3 0.00 0.00 0.00 95 1007.5
20260902164438 76 315 0.9 4.3 0.00 0.00 0.00 95 1007.5
20260902164338 76 45 1.7 4.3 0.00 0.00 0.00 95 1007.5
20260902164237 76 225 0.9 4.3 0.00 0.00 0.00 95 1007.7
20260902164137 76 270 0.0 4.3 0.00 0.00 0.00 95 1007.5
20260902164038 76 180 0.0 4.3 0.00 0.00 0.00 95 1007.7
20260902163937 76 0 4.3 0.0 0.00 0.00 0.00 95 1007.6
20260902163837 76 45 0.9 4.3 0.00 0.00 0.00 95 1007.6
20260902163737 76 180 0.9 4.3 0.00 0.00 0.00 95 1007.5
20260902163638 76 45 0.9 4.3 0.00 0.00 0.00 95 1007.6
20260902163538 76 45 0.0 4.3 0.00 0.00 0.00 95 1007.5
20260902163438 76 45 0.9 4.3 0.00 0.00 0.00 95 1007.7
20260902163337 76 45 0.0 4.3 0.00 0.00 0.00 95 1007.7
20260902163237 76 270 0.0 4.3 0.00 0.00 0.00 95 1007.6
20260902163138 76 180 0.9 4.3 0.00 0.00 0.00 95 1007.5
20260902163038 76 315 1.7 4.3 0.00 0.00 0.00 95 1007.5
20260902162937 76 45 0.9 3.5 0.00 0.00 0.00 95 1007.7
20260902162837 76 45 0.9 3.5 0.00 0.00 0.00 95 1007.8
20260902162737 76 270 0.9 3.5 0.00 0.00 0.00 95 1007.7
20260902162638 76 270 0.9 3.5 0.00 0.00 0.00 95 1007.8
20260902162538 76 180 0.9 3.5 0.00 0.00 0.00 95 1007.8
20260902162437 76 270 0.0 3.5 0.00 0.00 0.00 95 1007.9
20260902162337 76 45 0.0 3.5 0.00 0.00 0.00 95 1007.7
20260902162237 76 0 0.0 3.5 0.00 0.00 0.00 95 1007.8
20260902162138 76 180 0.0 3.5 0.00 0.00 0.00 95 1007.9
20260902162038 76 180 0.9 3.5 0.00 0.00 0.00 95 1007.9
20260902161937 76 270 0.9 3.5 0.00 0.00 0.00 95 1008.0
20260902161837 76 270 0.0 4.3 0.00 0.00 0.00 95 1008.0
20260902161737 76 180 0.0 4.3 0.00 0.00 0.00 95 1007.9
20260902161638 76 180 0.0 4.3 0.00 0.00 0.00 95 1008.0
20260902161537 76 180 0.0 4.3 0.00 0.00 0.00 95 1008.0
20260902161437 76 180 0.0 4.3 0.00 0.00 0.00 95 1008.0
20260902161337 76 0 0.0 4.3 0.00 0.00 0.00 95 1008.0
20260902161237 76 315 0.9 4.3 0.00 0.00 0.00 95 1007.9
20260902161137 76 45 0.9 4.3 0.00 0.00 0.00 95 1008.0
20260902161037 76 270 0.9 4.3 0.00 0.00 0.00 95 1008.0
20260902160937 76 45 0.0 4.3 0.00 0.00 0.00 95 1008.0
20260902160837 76 0 0.0 2.6 0.00 0.00 0.00 95 1008.0
20260902160737 76 180 0.0 2.6 0.00 0.00 0.00 95 1008.0
20260902160637 76 180 0.0 2.6 0.00 0.00 0.00 95 1008.0
20260902160537 76 270 0.0 2.6 0.00 0.00 0.00 95 1008.1
20260902160437 76 180 0.0 2.6 0.00 0.00 0.00 95 1008.1
20260902160337 76 180 0.0 2.6 0.00 0.00 0.00 95 1008.0
20260902160237 76 45 0.0 2.6 0.00 0.00 0.00 95 1008.1
20260902160138 76 0 0.0 2.6 0.00 0.00 0.00 95 1008.0
20260902160037 76 315 0.0 2.6 0.00 0.00 0.00 95 1008.0
20260902155937 76 180 0.9 2.6 0.00 0.00 0.00 95 1008.0
20260902155837 76 270 0.0 2.6 0.00 0.00 0.00 95 1008.1
20260902155737 76 315 0.0 2.6 0.00 0.00 0.00 95 1008.0
20260902155637 76 45 0.0 2.6 0.00 0.00 0.00 95 1008.1
20260902155537 76 0 0.0 2.6 0.00 0.00 0.00 95 1007.9
20260902155437 76 270 0.0 2.6 0.00 0.00 0.00 95 1008.0
20260902155337 76 315 0.9 2.6 0.00 0.00 0.00 95 1008.0
20260902155237 76 45 0.9 2.6 0.00 0.00 0.00 95 1008.0
20260902155137 76 270 0.9 2.6 0.00 0.00 0.00 95 1008.1
20260902155037 76 45 0.0 2.6 0.00 0.00 0.00 95 1008.0
20260902154937 76 270 0.0 2.6 0.00 0.00 0.00 95 1008.1
20260902154837 76 180 0.0 2.6 0.00 0.00 0.00 95 1008.0
20260902154737 76 45 0.0 2.6 0.00 0.00 0.00 95 1008.0
20260902154637 76 270 0.0 2.6 0.00 0.00 0.00 95 1008.2
20260902154537 76 45 0.9 2.6 0.00 0.00 0.00 95 1008.1
20260902154437 76 270 0.0 2.6 0.00 0.00 0.00 95 1008.1
20260902154337 76 0 0.0 2.6 0.00 0.00 0.00 95 1008.0
20260902154237 76 225 0.0 2.6 0.00 0.00 0.00 95 1008.0
20260902154137 76 180 0.0 1.7 0.00 0.00 0.00 95 1008.0
20260902154037 76 225 0.0 1.7 0.00 0.00 0.00 95 1008.1
20260902153937 76 225 0.0 1.7 0.00 0.00 0.00 95 1008.0
20260902153837 76 0 0.0 1.7 0.00 0.00 0.00 95 1008.1
20260902153737 76 0 0.0 2.6 0.00 0.00 0.00 95 1008.0
20260902153638 76 225 0.0 2.6 0.00 0.00 0.00 95 1008.0
20260902153537 76 0 0.0 2.6 0.00 0.00 0.00 95 1007.9
20260902153437 76 0 0.0 2.6 0.00 0.00 0.00 95 1008.0
20260902153337 76 180 0.0 2.6 0.00 0.00 0.00 95 1008.1
20260902153237 76 225 0.0 2.6 0.00 0.00 0.00 95 1007.9
20260902153137 76 315 0.0 2.6 0.00 0.00 0.00 95 1008.0
20260902153038 76 270 0.0 2.6 0.00 0.00 0.00 95 1007.9
20260902152937 76 45 0.9 2.6 0.00 0.00 0.00 95 1008.0
20260902152837 76 45 0.0 2.6 0.00 0.00 0.00 95 1008.0
20260902152737 76 45 0.0 2.6 0.00 0.00 0.00 95 1008.0
20260902152637 76 270 0.0 2.6 0.00 0.00 0.00 95 1008.1
20260902152538 76 0 0.0 2.6 0.00 0.00 0.00 95 1008.0
20260902152438 76 225 0.0 2.6 0.00 0.00 0.00 95 1007.9
20260902152337 76 180 0.0 2.6 0.00 0.00 0.00 95 1008.0
20260902152237 75 45 0.0 2.6 0.00 0.00 0.00 95 1007.9
20260902152137 76 180 0.0 2.6 0.00 0.00 0.00 95 1008.0
20260902152038 76 315 0.0 1.7 0.00 0.00 0.00 95 1007.9
20260902151938 75 0 0.0 1.7 0.00 0.00 0.00 95 1007.9
20260902151837 75 180 0.0 1.7 0.00 0.00 0.00 95 1008.0
20260902151737 75 180 0.0 1.7 0.00 0.00 0.00 95 1008.0
20260902151637 75 180 0.0 1.7 0.00 0.00 0.00 95 1008.0
20260902151538 75 315 0.0 1.7 0.00 0.00 0.00 95 1007.9
20260902151437 75 225 0.0 1.7 0.00 0.00 0.00 95 1007.9
20260902151337 75 270 0.0 1.7 0.00 0.00 0.00 95 1008.0
20260902151237 0 81 13.0 0.0 0.00 0.00 0.00
20260902151137 75 225 0.0 1.7 0.00 0.00 0.00 95 1008.0
20260902151038 75 0 0.0 1.7 0.00 0.00 0.00 95 1007.9
20260902150937 75 0 0.0 1.7 0.00 0.00 0.00 95 1007.8
20260902150837 75 0 0.0 1.7 0.00 0.00 0.00 95 1008.0
20260902150737 75 225 0.0 1.7 0.00 0.00 0.00 95 1007.8
20260902150637 75 0 0.0 1.7 0.00 0.00 0.00 95 1007.9
20260902150537 75 225 0.0 1.7 0.00 0.00 0.00 95 1007.7
20260902150437 75 0 0.0 1.7 0.00 0.00 0.00 95 1007.8
20260902150337 75 0 0.0 1.7 0.00 0.00 0.00 95 1007.8
20260902150237 75 0 0.0 1.7 0.00 0.00 0.00 95 1007.9
20260902150137 75 225 0.0 1.7 0.00 0.00 0.00 95 1007.9
20260902150037 75 225 0.0 2.6 0.00 0.00 0.00 95 1007.8
20260902145938 75 45 0.0 2.6 0.00 0.00 0.00 95 1007.9
20260902145837 75 0 0.0 2.6 0.00 0.00 0.00 95 1007.9
20260902145737 75 225 0.0 2.6 0.00 0.00 0.00 95 1008.0
20260902145637 75 0 0.0 2.6 0.00 0.00 0.00 95 1007.9
20260902145537 75 225 0.0 2.6 0.00 0.00 0.00 95 1007.9
20260902145437 75 315 0.0 2.6 0.00 0.00 0.00 95 1007.9
20260902145337 75 0 0.0 2.6 0.00 0.00 0.00 95 1007.9
20260902145237 75 180 0.0 2.6 0.00 0.00 0.00 95 1007.9
20260902145137 75 270 0.9 2.6 0.00 0.00 0.00 95 1008.0
20260902145037 75 270 0.0 2.6 0.00 0.00 0.00 95 1008.0
20260902144937 75 45 0.0 1.7 0.00 0.00 0.00 95 1008.0
20260902144837 75 225 0.0 1.7 0.00 0.00 0.00 95 1008.1
20260902144737 75 0 0.0 1.7 0.00 0.00 0.00 95 1008.0
20260902144637 75 0 0.0 1.7 0.00 0.00 0.00 95 1008.1
20260902144537 76 315 0.0 2.6 0.00 0.00 0.00 95 1007.9
20260902144437 76 180 0.0 2.6 0.00 0.00 0.00 95 1008.1
20260902144337 75 180 0.0 2.6 0.00 0.00 0.00 95 1008.0
20260902144237 75 0 0.0 2.6 0.00 0.00 0.00 94 1007.9
20260902144137 76 225 0.0 2.6 0.00 0.00 0.00 94 1008.1
20260902144037 76 0 0.0 2.6 0.00 0.00 0.00 94 1008.0
20260902143937 76 225 0.0 2.6 0.00 0.00 0.00 94 1008.0
20260902143837 76 225 0.0 2.6 0.00 0.00 0.00 94 1008.0
20260902143737 76 315 0.0 2.6 0.00 0.00 0.00 94 1008.1
20260902143537 76 315 0.9 2.6 0.00 0.00 0.00 94 1008.1
20260902143437 76 45 0.0 2.6 0.00 0.00 0.00 94 1008.2
20260902143337 76 270 0.0 2.6 0.00 0.00 0.00 94 1008.2
20260902143236 76 1 2.6 0.0 0.00 0.00 0.00 94 1008.2
20260902143137 76 45 0.9 2.6 0.00 0.00 0.00 94 1008.3
20260902143037 76 180 0.0 2.6 0.00 0.00 0.00 94 1008.3
20260902142937 76 315 0.0 2.6 0.00 0.00 0.00 94 1008.1
20260902142837 76 45 0.9 2.6 0.00 0.00 0.00 94 1008.2
20260902142737 76 315 0.0 4.3 0.00 0.00 0.00 94 1008.1
20260902142637 76 180 0.0 4.3 0.00 0.00 0.00 94 1008.3
20260902142537 76 0 0.0 4.3 0.00 0.00 0.00 94 1008.1
20260902142437 76 180 0.0 4.3 0.00 0.00 0.00 94 1008.3
20260902142337 76 180 0.0 4.3 0.00 0.00 0.00 94 1008.2
20260902142237 76 45 0.0 4.3 0.00 0.00 0.00 94 1008.2
20260902142137 75 180 0.0 4.3 0.00 0.00 0.00 94 1008.3
20260902142037 75 315 0.0 4.3 0.00 0.00 0.00 94 1008.2
20260902141937 76 180 0.9 4.3 0.00 0.00 0.00 94 1008.3
20260902141837 76 315 1.7 4.3 0.00 0.00 0.00 94 1008.2
20260902141737 76 45 0.9 3.5 0.00 0.00 0.00 94 1008.2
20260902141637 76 45 0.9 3.5 0.00 0.00 0.00 94 1008.2
20260902141537 76 0 0.9 3.5 0.00 0.00 0.00 94 1008.2
20260902141437 76 45 0.9 4.3 0.00 0.00 0.00 94 1008.3
20260902141337 76 0 1.7 4.3 0.00 0.00 0.00 94 1008.1
20260902141237 75 45 0.0 4.3 0.00 0.00 0.00 94 1008.3
20260902141137 75 45 0.0 4.3 0.00 0.00 0.00 94 1008.3
20260902141037 75 315 0.0 4.3 0.00 0.00 0.00 94 1008.5
20260902140937 76 270 0.0 4.3 0.00 0.00 0.00 94 1008.2
20260902140837 76 270 0.9 4.3 0.00 0.00 0.00 94 1008.4
20260902140737 76 45 1.7 4.3 0.00 0.00 0.00 94 1008.5
20260902140637 76 315 1.7 4.3 0.00 0.00 0.00 94 1008.3
20260902140537 76 45 0.9 4.3 0.00 0.00 0.00 94 1008.5
20260902140437 76 180 0.0 3.5 0.00 0.00 0.00 94 1008.4
20260902140337 76 315 0.9 3.5 0.00 0.00 0.00 94 1008.4
20260902140237 76 45 0.9 3.5 0.00 0.00 0.00 94 1008.4
20260902140137 76 45 0.0 3.5 0.00 0.00 0.00 94 1008.3
20260902140037 76 270 0.0 3.5 0.00 0.00 0.00 94 1008.3
20260902135937 75 180 0.0 3.5 0.00 0.00 0.00 94 1008.4
20260902135837 76 180 0.0 3.5 0.00 0.00 0.00 94 1008.5
20260902135737 76 45 0.0 3.5 0.00 0.00 0.00 94 1008.4
20260902135637 76 45 0.9 3.5 0.00 0.00 0.00 94 1008.4
20260902135537 76 180 0.9 3.5 0.00 0.00 0.00 94 1008.3
20260902135437 76 270 0.0 3.5 0.00 0.00 0.00 94 1008.4
20260902135337 76 180 0.0 4.3 0.00 0.00 0.00 94 1008.5
20260902135237 76 270 0.9 4.3 0.00 0.00 0.00 94 1008.4
20260902135137 76 45 0.9 4.3 0.00 0.00 0.00 94 1008.3
20260902135037 76 0 0.9 4.3 0.00 0.00 0.00 94 1008.3
20260902134937 76 270 0.9 4.3 0.00 0.00 0.00 94 1008.3
20260902134737 76 270 0.0 4.3 0.00 0.00 0.00 94 1008.5
20260902134637 76 180 0.0 4.3 0.00 0.00 0.00 94 1008.5
20260902134537 76 180 0.9 4.3 0.00 0.00 0.00 94 1008.5
20260902134437 76 315 1.7 4.3 0.00 0.00 0.00 94 1008.4
20260902134337 76 315 0.9 3.5 0.00 0.00 0.00 94 1008.4
20260902134237 76 270 0.9 3.5 0.00 0.00 0.00 94 1008.4
20260902134136 76 45 0.0 3.5 0.00 0.00 0.00 94 1008.5
20260902134037 76 45 0.0 3.5 0.00 0.00 0.00 94 1008.3
20260902133937 76 45 0.0 3.5 0.00 0.00 0.00 94 1008.5
20260902133837 76 270 0.0 3.5 0.00 0.00 0.00 94 1008.5
20260902133737 76 0 0.0 3.5 0.00 0.00 0.00 94 1008.5
20260902133636 76 0 0.9 3.5 0.00 0.00 0.00 94 1008.5
20260902133537 75 270 0.9 3.5 0.00 0.00 0.00 94 1008.4
20260902133437 76 180 0.9 3.5 0.00 0.00 0.00 94 1008.3
20260902133337 76 315 0.9 3.5 0.00 0.00 0.00 94 1008.5
20260902133237 76 45 0.9 3.5 0.00 0.00 0.00 94 1008.5
20260902133136 76 315 0.0 3.5 0.00 0.00 0.00 94 1008.4
20260902133037 76 315 0.0 3.5 0.00 0.00 0.00 94 1008.4
20260902132937 75 45 0.9 3.5 0.00 0.00 0.00 94 1008.3
20260902132837 75 270 0.9 3.5 0.00 0.00 0.00 94 1008.4
20260902132737 75 45 0.9 3.5 0.00 0.00 0.00 94 1008.4
20260902132636 75 180 0.9 3.5 0.00 0.00 0.00 94 1008.4
20260902132536 75 315 0.9 5.2 0.00 0.00 0.00 94 1008.3
20260902132437 75 315 1.7 5.2 0.00 0.00 0.00 94 1008.4
20260902132337 76 315 0.9 5.2 0.00 0.00 0.00 94 1008.3
20260902132237 75 270 0.0 5.2 0.00 0.00 0.00 94 1008.4
20260902132136 75 180 0.0 5.2 0.00 0.00 0.00 94 1008.3
20260902132036 75 180 0.0 5.2 0.00 0.00 0.00 94 1008.4
20260902131937 75 315 0.0 5.2 0.00 0.00 0.00 94 1008.5
20260902131837 75 45 0.9 5.2 0.00 0.00 0.00 94 1008.4
20260902131737 75 270 1.7 5.2 0.00 0.00 0.00 94 1008.4
20260902131636 76 315 0.9 5.2 0.00 0.00 0.00 94 1008.5
20260902131536 76 270 0.9 5.2 0.00 0.00 0.00 94 1008.5
20260902131437 76 0 1.7 5.2 0.00 0.00 0.00 94 1008.4
20260902131337 76 45 1.7 5.2 0.00 0.00 0.00 94 1008.4
20260902131237 76 45 0.9 5.2 0.00 0.00 0.00 94 1008.5
20260902131136 76 45 0.0 2.6 0.00 0.00 0.00 94 1008.5
20260902131036 76 315 0.0 2.6 0.00 0.00 0.00 94 1008.5
20260902130937 75 315 0.0 2.6 0.00 0.00 0.00 94 1008.4
20260902130837 76 270 0.0 2.6 0.00 0.00 0.00 94 1008.3
20260902130736 76 1 3.5 0.0 0.00 0.00 0.00 94 1008.4
20260902130636 76 0 0.9 3.5 0.00 0.00 0.00 94 1008.5
20260902130536 75 270 0.9 3.5 0.00 0.00 0.00 94 1008.5
20260902130436 76 180 0.9 3.5 0.00 0.00 0.00 94 1008.5
20260902130337 76 315 0.9 5.2 0.00 0.00 0.00 94 1008.4
20260902130237 76 315 0.0 5.2 0.00 0.00 0.00 94 1008.5
20260902130136 76 270 0.0 5.2 0.00 0.00 0.00 94 1008.5
20260902130036 75 0 0.9 5.2 0.00 0.00 0.00 94 1008.4
20260902125936 75 315 1.7 5.2 0.00 0.00 0.00 94 1008.5
20260902125837 75 270 1.7 5.2 0.00 0.00 0.00 94 1008.4
20260902125737 75 270 1.7 5.2 0.00 0.00 0.00 94 1008.4
20260902125636 75 315 1.7 5.2 0.00 0.00 0.00 94 1008.5
20260902125536 75 45 0.9 5.2 0.00 0.00 0.00 94 1008.5
20260902125436 76 270 1.7 5.2 0.00 0.00 0.00 94 1008.4
20260902125336 76 45 0.9 4.3 0.00 0.00 0.00 94 1008.5
20260902125237 76 45 0.0 4.3 0.00 0.00 0.00 94 1008.3
20260902125136 76 180 0.0 4.3 0.00 0.00 0.00 94 1008.4
20260902125036 76 315 0.9 4.3 0.00 0.00 0.00 94 1008.5
20260902124936 76 315 0.0 4.3 0.00 0.00 0.00 94 1008.3
20260902124836 76 315 0.0 4.3 0.00 0.00 0.00 94 1008.3
20260902124737 76 45 0.9 4.3 0.00 0.00 0.00 94 1008.5
20260902124636 76 45 0.9 4.3 0.00 0.00 0.00 94 1008.5
20260902124536 76 315 0.9 3.5 0.00 0.00 0.00 94 1008.3
20260902124436 76 45 0.9 4.3 0.00 0.00 0.00 94 1008.5
20260902124336 76 45 0.9 4.3 0.00 0.00 0.00 94 1008.4
20260902124237 75 270 0.9 4.3 0.00 0.00 0.00 94 1008.3
20260902124136 75 45 0.0 4.3 0.00 0.00 0.00 94 1008.5
20260902124036 75 270 0.0 4.3 0.00 0.00 0.00 94 1008.5
20260902123836 75 45 0.0 4.3 0.00 0.00 0.00 94 1008.3
20260902123737 75 180 0.9 4.3 0.00 0.00 0.00 94 1008.4
20260902123636 75 315 0.9 4.3 0.00 0.00 0.00 94 1008.3
20260902123536 75 180 0.9 4.3 0.00 0.00 0.00 94 1008.3
20260902123436 75 180 1.7 3.5 0.00 0.00 0.00 94 1008.4
20260902123336 75 315 0.9 2.6 0.00 0.00 0.00 94 1008.4
20260902123236 75 45 0.0 2.6 0.00 0.00 0.00 93 1008.2
20260902123136 75 315 0.9 3.5 0.00 0.00 0.00 93 1008.3
20260902123036 75 45 0.9 3.5 0.00 0.00 0.00 93 1008.3
20260902122936 75 45 0.9 3.5 0.00 0.00 0.00 93 1008.3
20260902122836 76 45 0.9 3.5 0.00 0.00 0.00 93 1008.3
20260902122736 76 180 0.9 3.5 0.00 0.00 0.00 93 1008.3
20260902122636 76 270 0.9 3.5 0.00 0.00 0.00 93 1008.4
20260902122536 75 45 0.9 3.5 0.00 0.00 0.00 93 1008.3
20260902122336 76 315 0.9 3.5 0.00 0.00 0.00 93 1008.3
20260902122236 76 315 0.9 3.5 0.00 0.00 0.00 93 1008.3
20260902122136 76 180 0.9 2.6 0.00 0.00 0.00 93 1008.2
20260902122036 76 45 0.9 2.6 0.00 0.00 0.00 93 1008.3
20260902121936 76 0 0.0 2.6 0.00 0.00 0.00 93 1008.1
20260902121836 76 180 0.0 2.6 0.00 0.00 0.00 93 1008.1
20260902121736 76 0 0.9 2.6 0.00 0.00 0.00 93 1008.2
20260902121636 76 180 0.9 3.5 0.00 0.00 0.00 93 1008.2
20260902121536 76 225 0.9 3.5 0.00 0.00 0.00 93 1008.1
20260902121436 76 315 0.0 3.5 0.00 0.00 0.00 93 1008.2
20260902121336 76 225 0.0 3.5 0.00 0.00 0.00 93 1008.2
20260902121236 76 0 0.0 4.3 0.00 0.00 0.00 93 1008.2
20260902121136 76 225 0.0 4.3 0.00 0.00 0.00 93 1008.1
20260902121036 76 0 0.0 4.3 0.00 0.00 0.00 93 1008.1
20260902120936 76 270 0.0 4.3 0.00 0.00 0.00 93 1008.1
20260902120836 76 0 0.9 4.3 0.00 0.00 0.00 93 1008.2
20260902120736 76 180 0.0 4.3 0.00 0.00 0.00 93 1008.2
20260902120636 76 0 0.0 4.3 0.00 0.00 0.00 93 1008.1
20260902120536 76 225 0.0 4.3 0.00 0.00 0.00 93 1008.2
20260902120436 76 45 0.0 4.3 0.00 0.00 0.00 93 1008.1
20260902120336 0 81 12.2 0.0 0.00 0.00 0.00
20260902120236 76 0 0.9 4.3 0.00 0.00 0.00 93 1008.2
20260902120136 76 225 0.9 4.3 0.00 0.00 0.00 93 1008.0
20260902120036 76 225 0.0 4.3 0.00 0.00 0.00 93 1008.2
20260902115936 76 0 0.0 4.3 0.00 0.00 0.00 93 1008.2
20260902115836 0 81 12.2 0.0 0.00 0.00 0.00
20260902115736 76 225 0.0 4.3 0.00 0.00 0.00 93 1008.0
20260902115636 76 315 0.0 4.3 0.00 0.00 0.00 93 1008.1
20260902115537 76 315 0.9 4.3 0.00 0.00 0.00 93 1008.0
20260902115436 76 45 0.9 4.3 0.00 0.00 0.00 92 1008.1
20260902115336 76 225 0.0 3.5 0.00 0.00 0.00 92 1008.0
20260902115236 76 315 0.0 3.5 0.00 0.00 0.00 92 1008.2
20260902115136 76 225 0.0 3.5 0.00 0.00 0.00 92 1008.1
20260902115036 76 315 0.0 3.5 0.00 0.00 0.00 92 1008.0
20260902114936 76 225 0.0 3.5 0.00 0.00 0.00 92 1007.9
20260902114836 76 45 0.0 3.5 0.00 0.00 0.00 92 1008.1
20260902114736 76 225 0.9 4.3 0.00 0.00 0.00 92 1008.2
20260902114636 76 225 0.9 4.3 0.00 0.00 0.00 92 1008.1
20260902114536 76 315 0.9 5.2 0.00 0.00 0.00 92 1008.0
20260902114436 76 225 0.0 5.2 0.00 0.00 0.00 92 1007.9
20260902114336 76 45 0.0 5.2 0.00 0.00 0.00 92 1007.9
20260902114236 76 0 0.9 5.2 0.00 0.00 0.00 92 1008.1
20260902114136 76 270 0.9 5.2 0.00 0.00 0.00 92 1008.2
20260902114036 76 315 1.7 5.2 0.00 0.00 0.00 92 1007.9
20260902113936 76 225 0.9 5.2 0.00 0.00 0.00 92 1008.0
20260902113836 76 45 0.9 5.2 0.00 0.00 0.00 92 1008.1
20260902113736 76 315 0.9 5.2 0.00 0.00 0.00 92 1008.0
20260902113636 76 45 1.7 5.2 0.00 0.00 0.00 92 1007.9
20260902113536 76 270 1.7 5.2 0.00 0.00 0.00 92 1008.0
20260902113436 76 225 0.9 5.2 0.00 0.00 0.00 92 1007.9
20260902113336 76 180 0.0 4.3 0.00 0.00 0.00 92 1007.9
20260902113236 76 270 1.7 4.3 0.00 0.00 0.00 92 1007.8
20260902113136 76 45 1.7 4.3 0.00 0.00 0.00 92 1007.9
20260902113036 76 180 0.9 4.3 0.00 0.00 0.00 92 1007.9
20260902112936 76 315 0.9 4.3 0.00 0.00 0.00 92 1008.0
20260902112836 76 0 0.9 3.5 0.00 0.00 0.00 91 1007.9
20260902112736 76 315 1.7 3.5 0.00 0.00 0.00 91 1008.0
20260902112636 76 315 1.7 3.5 0.00 0.00 0.00 91 1007.9
20260902112536 76 45 0.0 4.3 0.00 0.00 0.00 91 1007.8
20260902112436 76 270 0.0 4.3 0.00 0.00 0.00 91 1007.9
20260902112336 76 0 0.9 4.3 0.00 0.00 0.00 91 1007.9
20260902112236 76 270 0.9 4.3 0.00 0.00 0.00 91 1007.7
20260902112136 76 0 0.9 4.3 0.00 0.00 0.00 91 1007.8
20260902112036 76 225 0.9 4.3 0.00 0.00 0.00 91 1007.7
20260902111936 77 45 0.0 4.3 0.00 0.00 0.00 91 1007.8
20260902111836 77 315 0.9 5.2 0.00 0.00 0.00 91 1007.7
20260902111736 77 270 1.7 5.2 0.00 0.00 0.00 91 1007.7
20260902111636 77 315 1.7 5.2 0.00 0.00 0.00 91 1007.6
20260902111536 77 270 0.9 5.2 0.00 0.00 0.00 91 1007.7
20260902111436 77 180 0.0 5.2 0.00 0.00 0.00 91 1007.6
20260902111336 77 0 0.9 5.2 0.00 0.00 0.00 91 1007.7
20260902111236 77 315 0.0 5.2 0.00 0.00 0.00 91 1007.7
20260902111036 77 270 2.6 5.2 0.00 0.00 0.00 91 1007.7
20260902110936 77 315 1.7 5.2 0.00 0.00 0.00 91 1007.7
20260902110836 77 45 0.0 3.5 0.00 0.00 0.00 91 1007.8
20260902110736 77 45 0.9 3.5 0.00 0.00 0.00 91 1007.6
20260902110636 77 45 0.9 4.3 0.00 0.00 0.00 91 1007.7
20260902110536 77 45 0.9 5.2 0.00 0.00 0.00 91 1007.6
20260902110436 77 315 0.9 5.2 0.00 0.00 0.00 90 1007.6
20260902110336 77 270 0.9 5.2 0.00 0.00 0.00 90 1007.6
20260902110236 77 0 0.9 5.2 0.00 0.00 0.00 90 1007.5
20260902110136 77 0 1.7 5.2 0.00 0.00 0.00 90 1007.5
20260902110036 77 45 0.9 5.2 0.00 0.00 0.00 90 1007.6
20260902105936 77 270 0.0 5.2 0.00 0.00 0.00 90 1007.4
20260902105836 77 270 0.9 5.2 0.00 0.00 0.00 90 1007.5
20260902105736 77 180 1.7 5.2 0.00 0.00 0.00 90 1007.5
20260902105636 77 315 1.7 5.2 0.00 0.00 0.00 90 1007.5
20260902105536 77 45 0.9 5.2 0.00 0.00 0.00 90 1007.5
20260902105436 77 180 0.9 5.2 0.00 0.00 0.00 90 1007.6
20260902105336 77 315 0.0 5.2 0.00 0.00 0.00 90 1007.6
20260902105236 77 0 0.0 5.2 0.00 0.00 0.00 90 1007.6
20260902105136 77 45 0.0 5.2 0.00 0.00 0.00 90 1007.5
20260902105036 77 180 0.9 5.2 0.00 0.00 0.00 90 1007.6
20260902104936 77 45 1.7 5.2 0.00 0.00 0.00 90 1007.5
20260902104836 77 315 2.6 6.1 0.00 0.00 0.00 90 1007.7
20260902104636 77 45 1.7 6.1 0.00 0.00 0.00 89 1007.6
20260902104536 77 270 1.7 6.1 0.00 0.00 0.00 89 1007.6
20260902104436 77 45 0.9 6.1 0.00 0.00 0.00 89 1007.6
20260902104336 77 270 0.9 6.1 0.00 0.00 0.00 89 1007.6
20260902104236 77 270 1.7 6.1 0.00 0.00 0.00 89 1007.6
20260902104136 77 270 2.6 6.1 0.00 0.00 0.00 89 1007.6
20260902104036 77 0 2.6 6.1 0.00 0.00 0.00 89 1007.6
20260902103936 77 45 2.6 6.1 0.00 0.00 0.00 89 1007.6
20260902103836 77 270 1.7 5.2 0.00 0.00 0.00 89 1007.6
20260902103736 77 45 1.7 5.2 0.00 0.00 0.00 89 1007.5
20260902103636 78 45 1.7 5.2 0.00 0.00 0.00 89 1007.6
20260902103536 78 45 1.7 5.2 0.00 0.00 0.00 89 1007.5
20260902103436 78 225 1.7 5.2 0.00 0.00 0.00 89 1007.6
20260902103335 0 76 9.6 0.0 0.00 0.00 0.00
20260902103236 78 270 0.0 5.2 0.00 0.00 0.00 89 1007.5
20260902103136 78 45 0.9 5.2 0.00 0.00 0.00 89 1007.8
20260902103036 78 0 0.0 5.2 0.00 0.00 0.00 89 1007.6
20260902102936 78 180 0.9 5.2 0.00 0.00 0.00 89 1007.5
20260902102836 78 270 0.9 5.2 0.00 0.00 0.00 89 1007.5
20260902102736 78 315 1.7 3.5 0.00 0.00 0.00 89 1007.5
20260902102636 78 0 0.9 4.3 0.00 0.00 0.00 89 1007.5
20260902102536 78 315 0.9 4.3 0.00 0.00 0.00 89 1007.5
20260902102436 78 45 0.9 4.3 0.00 0.00 0.00 89 1007.5
20260902102336 78 180 0.9 4.3 0.00 0.00 0.00 89 1007.6
20260902102235 78 180 0.9 4.3 0.00 0.00 0.00 89 1007.3
20260902102136 78 315 1.7 4.3 0.00 0.00 0.00 89 1007.5
20260902102036 78 0 0.9 4.3 0.00 0.00 0.00 89 1007.4
20260902101935 0 76 10.4 0.0 0.00 0.00 0.00
20260902101835 78 180 1.7 4.3 0.00 0.00 0.00 89 1007.4
20260902101736 78 270 0.9 5.2 0.00 0.00 0.00 89 1007.5
20260902101636 78 45 0.9 5.2 0.00 0.00 0.00 89 1007.5
20260902101536 78 180 0.9 5.2 0.00 0.00 0.00 89 1007.5
20260902101436 78 45 1.7 5.2 0.00 0.00 0.00 89 1007.5
20260902101336 78 180 1.7 5.2 0.00 0.00 0.00 89 1007.4
20260902101236 78 0 1.7 5.2 0.00 0.00 0.00 89 1007.5
20260902101136 78 45 0.9 5.2 0.00 0.00 0.00 89 1007.4
20260902101036 78 0 0.9 5.2 0.00 0.00 0.00 89 1007.5
20260902100935 78 225 1.7 5.2 0.00 0.00 0.00 88 1007.4
20260902100836 78 315 1.7 5.2 0.00 0.00 0.00 88 1007.4
20260902100736 78 270 1.7 5.2 0.00 0.00 0.00 88 1007.5
20260902100636 78 270 1.7 5.2 0.00 0.00 0.00 88 1007.4
20260902100536 78 45 0.9 5.2 0.00 0.00 0.00 88 1007.5
20260902100436 78 270 0.0 4.3 0.00 0.00 0.00 88 1007.7
20260902100336 78 270 0.9 4.3 0.00 0.00 0.00 88 1007.6
20260902100235 78 225 1.7 4.3 0.00 0.00 0.00 88 1007.5
20260902100136 78 270 0.9 4.3 0.00 0.00 0.00 88 1007.6
20260902100036 78 45 0.0 4.3 0.00 0.00 0.00 88 1007.5
20260902095936 78 315 0.0 4.3 0.00 0.00 0.00 88 1007.5
20260902095836 78 270 0.0 4.3 0.00 0.00 0.00 88 1007.5
20260902095736 78 225 0.0 4.3 0.00 0.00 0.00 88 1007.5
20260902095636 78 315 0.9 4.3 0.00 0.00 0.00 88 1007.4
20260902095536 78 270 0.9 4.3 0.00 0.00 0.00 88 1007.4
20260902095436 78 0 0.9 4.3 0.00 0.00 0.00 88 1007.5
20260902095336 78 180 0.9 4.3 0.00 0.00 0.00 88 1007.4
20260902095236 78 0 0.0 4.3 0.00 0.00 0.00 88 1007.7
20260902095136 78 180 0.9 4.3 0.00 0.00 0.00 88 1007.6
20260902095036 78 180 0.9 4.3 0.00 0.00 0.00 88 1007.5
20260902094936 78 45 0.9 4.3 0.00 0.00 0.00 88 1007.5
20260902094836 78 270 0.0 4.3 0.00 0.00 0.00 88 1007.6
20260902094736 78 180 0.0 4.3 0.00 0.00 0.00 88 1007.4
20260902094636 78 270 0.9 4.3 0.00 0.00 0.00 88 1007.5
20260902094536 78 180 0.9 4.3 0.00 0.00 0.00 88 1007.4
20260902094435 78 0 0.0 3.5 0.00 0.00 0.00 88 1007.4
20260902094336 78 225 0.0 4.3 0.00 0.00 0.00 88 1007.5
20260902094236 78 315 0.9 4.3 0.00 0.00 0.00 88 1007.6
20260902094035 78 225 0.9 4.3 0.00 0.00 0.00 88 1007.4
20260902093935 78 180 0.9 4.3 0.00 0.00 0.00 88 1007.5
20260902093835 78 225 0.9 4.3 0.00 0.00 0.00 88 1007.4
20260902093736 78 0 0.0 4.3 0.00 0.00 0.00 88 1007.5
20260902093636 78 270 0.9 4.3 0.00 0.00 0.00 88 1007.6
20260902093535 78 0 1.7 4.3 0.00 0.00 0.00 88 1007.5
20260902093435 78 270 1.7 4.3 0.00 0.00 0.00 88 1007.5
20260902093336 78 315 1.7 4.3 0.00 0.00 0.00 88 1007.4
20260902093236 78 270 0.9 5.2 0.00 0.00 0.00 88 1007.5
20260902093135 78 45 0.9 5.2 0.00 0.00 0.00 88 1007.5
20260902093035 78 270 0.9 5.2 0.00 0.00 0.00 88 1007.6
20260902092935 78 0 0.9 5.2 0.00 0.00 0.00 88 1007.5
20260902092836 78 270 0.9 5.2 0.00 0.00 0.00 88 1007.5
20260902092735 78 270 0.9 5.2 0.00 0.00 0.00 88 1007.4
20260902092635 78 0 1.7 5.2 0.00 0.00 0.00 88 1007.5
20260902092535 78 315 0.9 5.2 0.00 0.00 0.00 88 1007.5
20260902092436 78 45 0.9 5.2 0.00 0.00 0.00 88 1007.6
20260902092336 78 180 1.7 6.1 0.00 0.00 0.00 88 1007.5
20260902092235 78 270 0.9 6.1 0.00 0.00 0.00 88 1007.6
20260902092135 78 45 0.9 6.1 0.00 0.00 0.00 88 1007.5
20260902092035 78 180 1.7 6.1 0.00 0.00 0.00 88 1007.5
20260902091935 78 180 1.7 6.1 0.00 0.00 0.00 88 1007.6
20260902091835 78 45 2.6 6.1 0.00 0.00 0.00 87 1007.5
20260902091735 78 0 1.7 6.1 0.00 0.00 0.00 87 1007.6
20260902091635 78 270 1.7 6.1 0.00 0.00 0.00 87 1007.6
20260902091536 79 270 2.6 6.1 0.00 0.00 0.00 87 1007.5
20260902091435 79 270 2.6 6.1 0.00 0.00 0.00 87 1007.5
20260902091335 79 180 1.7 4.3 0.00 0.00 0.00 88 1007.5
20260902091235 79 0 0.9 4.3 0.00 0.00 0.00 88 1007.5
20260902091136 79 45 0.0 4.3 0.00 0.00 0.00 87 1007.5
20260902091035 79 180 0.9 4.3 0.00 0.00 0.00 87 1007.3
20260902090935 79 315 1.7 4.3 0.00 0.00 0.00 87 1007.4
20260902090835 79 270 0.9 4.3 0.00 0.00 0.00 87 1007.4
20260902090735 79 270 0.9 4.3 0.00 0.00 0.00 87 1007.4
20260902090635 79 270 0.9 4.3 0.00 0.00 0.00 87 1007.5
20260902090535 79 45 0.9 4.3 0.00 0.00 0.00 87 1007.5
20260902090435 79 45 1.7 4.3 0.00 0.00 0.00 87 1007.3
20260902090335 79 45 1.7 3.5 0.00 0.00 0.00 87 1007.3
20260902090235 79 45 0.9 3.5 0.00 0.00 0.00 87 1007.2
20260902090135 79 270 0.9 3.5 0.00 0.00 0.00 87 1007.3
20260902090035 79 315 0.0 3.5 0.00 0.00 0.00 87 1007.4
20260902085935 79 315 0.0 3.5 0.00 0.00 0.00 87 1007.3
20260902085835 79 45 0.9 3.5 0.00 0.00 0.00 87 1007.3
20260902085735 79 225 0.9 3.5 0.00 0.00 0.00 87 1007.2
20260902085635 79 270 0.9 3.5 0.00 0.00 0.00 87 1007.2
20260902085535 79 45 0.9 3.5 0.00 0.00 0.00 87 1007.3
20260902085435 79 180 0.9 3.5 0.00 0.00 0.00 87 1007.3
20260902085335 79 270 0.0 3.5 0.00 0.00 0.00 87 1007.2
20260902085235 79 270 0.9 3.5 0.00 0.00 0.00 87 1007.3
20260902085135 0 72 11.3 0.0 0.00 0.00 0.00
20260902085035 79 315 0.0 2.6 0.00 0.00 0.00 87 1007.2
20260902084935 79 225 0.0 3.5 0.00 0.00 0.00 87 1007.2
20260902084835 79 180 0.9 3.5 0.00 0.00 0.00 87 1007.2
20260902084735 79 180 0.9 3.5 0.00 0.00 0.00 87 1007.2
20260902084635 79 0 0.0 6.1 0.00 0.00 0.00 87 1007.2
20260902084535 79 315 0.0 6.1 0.00 0.00 0.00 87 1007.2
20260902084435 79 270 0.9 6.1 0.00 0.00 0.00 87 1007.2
20260902084335 79 270 0.0 6.1 0.00 0.00 0.00 87 1007.3
20260902084235 79 270 0.0 6.1 0.00 0.00 0.00 87 1007.3
20260902084135 79 45 0.9 6.1 0.00 0.00 0.00 87 1007.3
20260902084035 79 270 0.9 6.1 0.00 0.00 0.00 87 1007.2
20260902083935 79 270 0.9 6.1 0.00 0.00 0.00 87 1007.2
20260902083835 79 45 1.7 6.1 0.00 0.00 0.00 87 1007.1
20260902083735 79 270 1.7 6.1 0.00 0.00 0.00 87 1007.1
20260902083635 79 45 1.7 5.2 0.00 0.00 0.00 87 1007.1
20260902083535 79 270 1.7 5.2 0.00 0.00 0.00 87 1007.1
20260902083435 79 45 0.9 7.8 0.00 0.00 0.00 87 1007.1
20260902083235 79 270 0.9 7.8 0.00 0.00 0.00 87 1007.2
20260902083135 79 225 0.9 7.8 0.00 0.00 0.00 87 1007.2
20260902083035 79 270 0.0 7.8 0.00 0.00 0.00 87 1007.2
20260902082935 79 225 1.7 7.8 0.00 0.00 0.00 87 1007.1
20260902082835 79 180 1.7 7.8 0.00 0.00 0.00 87 1007.2
20260902082735 79 45 0.9 7.8 0.00 0.00 0.00 86 1007.1
20260902082635 79 225 2.6 7.8 0.00 0.00 0.00 86 1007.3
20260902082535 79 45 2.6 7.8 0.00 0.00 0.00 86 1007.1
20260902082435 79 225 2.6 5.2 0.00 0.00 0.00 86 1007.1
20260902082335 79 45 2.6 5.2 0.00 0.00 0.00 86 1007.2
20260902082235 79 225 2.6 5.2 0.00 0.00 0.00 86 1007.1
20260902082135 79 45 2.6 5.2 0.00 0.00 0.00 86 1007.3
20260902081935 79 45 0.9 4.3 0.00 0.00 0.00 86 1007.2
20260902081835 79 315 0.0 5.2 0.00 0.00 0.00 86 1007.1
20260902081735 79 45 0.9 5.2 0.00 0.00 0.00 86 1007.1
20260902081635 80 45 0.9 5.2 0.00 0.00 0.00 86 1007.2
20260902081535 80 0 0.0 5.2 0.00 0.00 0.00 85 1007.2
20260902081435 80 0 0.0 5.2 0.00 0.00 0.00 85 1007.2
20260902081335 80 315 0.0 5.2 0.00 0.00 0.00 85 1007.1
20260902081235 80 0 0.0 5.2 0.00 0.00 0.00 85 1007.2
20260902081135 80 0 0.9 5.2 0.00 0.00 0.00 85 1007.2
20260902081035 80 0 1.7 5.2 0.00 0.00 0.00 85 1007.1
20260902080935 80 270 1.7 5.2 0.00 0.00 0.00 85 1007.0
20260902080835 80 270 0.0 5.2 0.00 0.00 0.00 85 1007.0
20260902080735 80 315 0.0 3.5 0.00 0.00 0.00 85 1007.1
20260902080635 80 45 0.0 3.5 0.00 0.00 0.00 85 1007.0
20260902080535 80 315 0.9 3.5 0.00 0.00 0.00 85 1007.0
20260902080435 80 315 1.7 4.3 0.00 0.00 0.00 85 1007.0
20260902080335 80 45 1.7 4.3 0.00 0.00 0.00 85 1007.1
20260902080235 80 45 0.9 4.3 0.00 0.00 0.00 84 1007.0
20260902080135 80 225 0.0 4.3 0.00 0.00 0.00 84 1007.1
20260902080035 80 225 0.0 4.3 0.00 0.00 0.00 84 1007.1
20260902075935 80 0 0.9 4.3 0.00 0.00 0.00 84 1007.0
20260902075835 80 225 0.9 4.3 0.00 0.00 0.00 84 1007.0
20260902075735 80 45 0.0 4.3 0.00 0.00 0.00 84 1007.0
20260902075635 80 270 0.9 4.3 0.00 0.00 0.00 84 1007.2
20260902075535 80 2 4.3 0.0 0.00 0.00 0.00 84 1007.0
20260902075435 80 225 0.9 4.3 0.00 0.00 0.00 84 1007.0
20260902075335 80 315 0.9 2.6 0.00 0.00 0.00 84 1007.0
20260902075235 80 180 0.0 2.6 0.00 0.00 0.00 84 1007.1
20260902075135 81 270 0.0 2.6 0.00 0.00 0.00 84 1007.1
20260902075035 81 0 0.0 3.5 0.00 0.00 0.00 84 1007.0
20260902074935 81 225 0.0 3.5 0.00 0.00 0.00 84 1007.1
20260902074835 81 315 0.0 3.5 0.00 0.00 0.00 83 1007.2
20260902074735 81 0 0.0 3.5 0.00 0.00 0.00 83 1007.0
20260902074635 81 180 0.0 3.5 0.00 0.00 0.00 83 1007.1
20260902074535 81 225 0.0 3.5 0.00 0.00 0.00 83 1007.1
20260902074435 81 225 0.0 3.5 0.00 0.00 0.00 83 1007.1
20260902074335 81 315 0.0 3.5 0.00 0.00 0.00 83 1007.2
20260902074235 81 225 0.9 3.5 0.00 0.00 0.00 83 1007.0
20260902074135 81 270 0.9 3.5 0.00 0.00 0.00 83 1006.9
20260902074035 81 270 0.9 3.5 0.00 0.00 0.00 83 1007.0
20260902073935 81 315 0.9 3.5 0.00 0.00 0.00 83 1007.1
20260902073835 81 180 0.0 3.5 0.00 0.00 0.00 83 1007.0
20260902073735 81 180 0.9 3.5 0.00 0.00 0.00 83 1007.0
20260902073635 81 270 1.7 3.5 0.00 0.00 0.00 83 1007.0
20260902073535 81 45 0.9 3.5 0.00 0.00 0.00 83 1006.9
20260902073435 81 270 0.0 3.5 0.00 0.00 0.00 83 1006.9
20260902073335 81 180 0.0 3.5 0.00 0.00 0.00 83 1007.0
20260902073235 81 315 0.0 3.5 0.00 0.00 0.00 83 1007.0
20260902073135 81 45 0.9 5.2 0.00 0.00 0.00 83 1007.1
20260902073035 81 315 0.9 5.2 0.00 0.00 0.00 83 1007.1
20260902072935 81 270 0.9 5.2 0.00 0.00 0.00 83 1006.9
20260902072735 81 180 0.9 5.2 0.00 0.00 0.00 83 1006.9
20260902072635 81 0 0.9 5.2 0.00 0.00 0.00 83 1006.9
20260902072535 81 315 0.0 5.2 0.00 0.00 0.00 83 1007.0
20260902072435 81 0 0.0 5.2 0.00 0.00 0.00 83 1007.2
20260902072335 81 315 0.9 5.2 0.00 0.00 0.00 83 1007.2
20260902072235 81 180 0.9 5.2 0.00 0.00 0.00 83 1007.1
20260902072135 81 0 0.9 4.3 0.00 0.00 0.00 83 1007.1
20260902072035 81 45 0.9 4.3 0.00 0.00 0.00 83 1007.1
20260902071935 81 45 0.9 4.3 0.00 0.00 0.00 83 1007.2
20260902071835 81 45 0.9 3.5 0.00 0.00 0.00 82 1007.2
20260902071735 82 315 0.9 3.5 0.00 0.00 0.00 83 1007.2
20260902071635 82 45 0.9 3.5 0.00 0.00 0.00 82 1007.2
20260902071535 82 315 0.9 3.5 0.00 0.00 0.00 82 1007.3
20260902071435 82 45 0.9 2.6 0.00 0.00 0.00 82 1007.3
20260902071335 82 315 0.0 2.6 0.00 0.00 0.00 82 1007.3
20260902071235 82 180 0.0 2.6 0.00 0.00 0.00 82 1007.1
20260902071135 82 180 0.0 2.6 0.00 0.00 0.00 82 1007.2
20260902071035 82 270 0.0 2.6 0.00 0.00 0.00 82 1007.3
20260902070935 82 180 0.0 5.2 0.00 0.00 0.00 82 1007.3
20260902070835 82 0 0.0 5.2 0.00 0.00 0.00 82 1007.3
20260902070735 82 270 0.9 5.2 0.00 0.00 0.00 82 1007.2
20260902070635 82 270 0.9 5.2 0.00 0.00 0.00 82 1007.3
20260902070535 82 270 0.9 5.2 0.00 0.00 0.00 81 1007.2
20260902070435 82 225 0.9 5.2 0.00 0.00 0.00 81 1007.1
20260902070335 82 45 0.9 5.2 0.00 0.00 0.00 81 1007.2
20260902070235 82 0 0.9 5.2 0.00 0.00 0.00 81 1007.0
20260902070135 82 315 1.7 5.2 0.00 0.00 0.00 80 1007.1
20260902070035 83 315 2.6 5.2 0.00 0.00 0.00 80 1007.1
20260902065935 83 315 1.7 4.3 0.00 0.00 0.00 80 1007.1
20260902065835 83 45 0.9 4.3 0.00 0.00 0.00 80 1007.2
20260902065735 83 180 0.0 2.6 0.00 0.00 0.00 81 1007.2
20260902065635 83 0 0.0 2.6 0.00 0.00 0.00 81 1007.2
20260902065535 83 180 0.9 2.6 0.00 0.00 0.00 81 1007.2
20260902065435 83 270 0.0 2.6 0.00 0.00 0.00 81 1007.3
20260902065234 83 180 0.0 2.6 0.00 0.00 0.00 81 1007.2
20260902065135 83 315 0.0 2.6 0.00 0.00 0.00 81 1007.0
20260902065035 83 45 0.0 5.2 0.00 0.00 0.00 82 1007.2
20260902064935 82 180 0.0 5.2 0.00 0.00 0.00 82 1007.2
20260902064834 82 180 0.9 5.2 0.00 0.00 0.00 82 1007.3
20260902064735 82 270 0.9 5.2 0.00 0.00 0.00 82 1007.2
20260902064635 82 45 0.0 5.2 0.00 0.00 0.00 82 1007.1
20260902064535 82 0 0.0 5.2 0.00 0.00 0.00 82 1007.1
20260902064434 82 270 0.0 5.2 0.00 0.00 0.00 83 1007.3
20260902064335 82 180 0.0 5.2 0.00 0.00 0.00 83 1007.2
20260902064235 82 180 0.9 5.2 0.00 0.00 0.00 83 1007.2
20260902064134 81 180 0.9 5.2 0.00 0.00 0.00 83 1007.2
20260902064034 81 0 0.0 3.5 0.00 0.00 0.00 83 1007.2
20260902063935 81 180 0.0 4.3 0.00 0.00 0.00 83 1007.2
20260902063835 81 270 0.0 5.2 0.00 0.00 0.00 83 1007.3
20260902063734 81 180 0.9 5.2 0.00 0.00 0.00 83 1007.3
20260902063634 81 315 0.9 5.2 0.00 0.00 0.00 83 1007.3
20260902063535 81 45 0.9 5.2 0.00 0.00 0.00 83 1007.3
20260902063435 81 180 0.0 5.2 0.00 0.00 0.00 83 1007.4
20260902063335 81 45 0.9 5.2 0.00 0.00 0.00 83 1007.2
20260902063234 81 45 1.7 5.2 0.00 0.00 0.00 83 1007.4
20260902063135 81 315 1.7 5.2 0.00 0.00 0.00 83 1007.5
20260902063035 81 45 2.6 5.2 0.00 0.00 0.00 83 1007.4
20260902062934 81 45 1.7 5.2 0.00 0.00 0.00 83 1007.5
20260902062834 81 270 1.7 4.3 0.00 0.00 0.00 83 1007.6
20260902062735 81 45 0.9 3.5 0.00 0.00 0.00 83 1007.5
20260902062635 81 180 0.0 3.5 0.00 0.00 0.00 83 1007.5
20260902062534 81 270 0.0 3.5 0.00 0.00 0.00 83 1007.5
20260902062434 81 45 0.9 3.5 0.00 0.00 0.00 83 1007.5
20260902062335 81 45 1.7 3.5 0.00 0.00 0.00 83 1007.5
20260902062235 81 45 1.7 3.5 0.00 0.00 0.00 83 1007.6
20260902062134 81 45 0.9 3.5 0.00 0.00 0.00 83 1007.5
20260902062034 81 270 0.0 3.5 0.00 0.00 0.00 83 1007.5
20260902061935 81 270 0.0 3.5 0.00 0.00 0.00 83 1007.5
20260902061835 81 180 0.0 3.5 0.00 0.00 0.00 83 1007.5
20260902061734 81 315 0.9 3.5 0.00 0.00 0.00 83 1007.5
20260902061634 81 180 1.7 3.5 0.00 0.00 0.00 83 1007.5
20260902061535 81 45 1.7 4.3 0.00 0.00 0.00 83 1007.6
20260902061435 81 45 1.7 4.3 0.00 0.00 0.00 83 1007.6
20260902061334 81 45 0.9 4.3 0.00 0.00 0.00 83 1007.5
20260902061234 81 315 1.7 4.3 0.00 0.00 0.00 83 1007.6
20260902061135 81 0 0.9 4.3 0.00 0.00 0.00 83 1007.6
20260902061035 81 45 0.0 4.3 0.00 0.00 0.00 83 1007.7
20260902060934 80 270 0.9 4.3 0.00 0.00 0.00 83 1007.6
20260902060835 80 180 0.9 4.3 0.00 0.00 0.00 83 1007.7
20260902060734 80 45 1.7 4.3 0.00 0.00 0.00 83 1007.7
20260902060635 81 180 1.7 5.2 0.00 0.00 0.00 83 1007.7
20260902060534 81 45 0.0 5.2 0.00 0.00 0.00 83 1007.9
20260902060334 80 0 0.0 5.2 0.00 0.00 0.00 83 1007.8
20260902060235 80 45 0.9 5.2 0.00 0.00 0.00 83 1007.7
20260902060134 80 315 0.9 5.2 0.00 0.00 0.00 83 1007.8
20260902060034 81 270 0.9 5.2 0.00 0.00 0.00 83 1007.8
20260902055934 81 225 1.7 5.2 0.00 0.00 0.00 83 1007.8
20260902055835 81 45 1.7 5.2 0.00 0.00 0.00 83 1007.7
20260902055734 81 45 1.7 5.2 0.00 0.00 0.00 82 1007.7
20260902055634 81 45 0.9 4.3 0.00 0.00 0.00 83 1007.8
20260902055534 81 45 1.7 4.3 0.00 0.00 0.00 82 1007.8
20260902055435 81 45 1.7 5.2 0.00 0.00 0.00 82 1007.6
20260902055334 81 270 1.7 5.2 0.00 0.00 0.00 83 1007.8
20260902055234 81 45 0.9 5.2 0.00 0.00 0.00 83 1007.8
20260902055134 81 315 0.0 5.2 0.00 0.00 0.00 83 1007.7
20260902055034 81 225 0.9 5.2 0.00 0.00 0.00 83 1007.7
20260902054934 81 45 1.7 5.2 0.00 0.00 0.00 83 1007.7
20260902054834 80 270 0.0 5.2 0.00 0.00 0.00 83 1007.7
20260902054734 0 77 9.6 0.0 0.00 0.00 0.00
20260902054634 80 225 0.9 5.2 0.00 0.00 0.00 82 1007.7
20260902054535 80 315 1.7 5.2 0.00 0.00 0.00 83 1007.7
20260902054434 80 225 0.9 5.2 0.00 0.00 0.00 83 1007.7
20260902054334 80 45 0.0 3.5 0.00 0.00 0.00 83 1007.9
20260902054234 80 0 0.9 3.5 0.00 0.00 0.00 83 1007.8
20260902054135 80 270 0.0 2.6 0.00 0.00 0.00 83 1007.7
20260902054034 80 180 0.0 2.6 0.00 0.00 0.00 83 1007.9
20260902053934 80 45 0.0 2.6 0.00 0.00 0.00 83 1008.0
20260902053834 80 0 0.0 2.6 0.00 0.00 0.00 83 1007.8
20260902053734 80 270 0.0 2.6 0.00 0.00 0.00 83 1007.9
20260902053634 80 0 0.0 2.6 0.00 0.00 0.00 83 1007.9
20260902053534 80 270 0.0 2.6 0.00 0.00 0.00 82 1007.9
20260902053434 80 180 0.0 2.6 0.00 0.00 0.00 82 1008.0
20260902053334 80 225 0.0 2.6 0.00 0.00 0.00 82 1007.9
20260902053234 81 180 0.0 2.6 0.00 0.00 0.00 82 1008.1
20260902053135 81 225 0.0 2.6 0.00 0.00 0.00 82 1008.0
20260902053034 81 270 0.0 2.6 0.00 0.00 0.00 81 1008.0
20260902052934 81 180 0.0 2.6 0.00 0.00 0.00 81 1008.1
20260902052834 81 270 0.0 2.6 0.00 0.00 0.00 81 1007.9
20260902052734 81 270 0.0 2.6 0.00 0.00 0.00 81 1008.0
20260902052634 81 225 0.0 3.5 0.00 0.00 0.00 81 1008.1
20260902052534 81 180 0.0 3.5 0.00 0.00 0.00 81 1008.0
20260902052434 81 45 0.9 3.5 0.00 0.00 0.00 81 1007.9
20260902052334 81 225 0.9 3.5 0.00 0.00 0.00 80 1008.1
20260902052234 81 225 0.9 3.5 0.00 0.00 0.00 80 1008.1
20260902052134 81 0 1.7 3.5 0.00 0.00 0.00 80 1007.9
20260902052034 82 225 0.9 3.5 0.00 0.00 0.00 80 1007.9
20260902051934 82 225 0.0 4.3 0.00 0.00 0.00 80 1007.8
20260902051834 82 315 0.9 4.3 0.00 0.00 0.00 80 1007.9
20260902051734 82 315 0.9 4.3 0.00 0.00 0.00 81 1008.0
20260902051634 82 0 0.9 4.3 0.00 0.00 0.00 81 1007.9
20260902051534 82 270 0.0 5.2 0.00 0.00 0.00 81 1007.8
20260902051434 81 0 0.0 5.2 0.00 0.00 0.00 81 1007.9
20260902051334 81 180 0.9 5.2 0.00 0.00 0.00 81 1007.9
20260902051234 81 180 1.7 5.2 0.00 0.00 0.00 82 1007.9
20260902051134 81 315 1.7 5.2 0.00 0.00 0.00 82 1007.6
20260902051034 81 315 0.9 5.2 0.00 0.00 0.00 82 1007.8
20260902050934 81 315 0.9 5.2 0.00 0.00 0.00 83 1007.8
20260902050834 81 45 0.9 5.2 0.00 0.00 0.00 83 1007.8
20260902050734 81 45 1.7 5.2 0.00 0.00 0.00 83 1007.6
20260902050634 80 45 1.7 5.2 0.00 0.00 0.00 83 1007.8
20260902050534 80 225 1.7 3.5 0.00 0.00 0.00 83 1007.8
20260902050434 80 225 0.9 3.5 0.00 0.00 0.00 83 1007.9
20260902050334 80 315 0.9 3.5 0.00 0.00 0.00 83 1007.9
20260902050234 80 315 0.9 3.5 0.00 0.00 0.00 83 1008.1
20260902050134 80 0 0.9 3.5 0.00 0.00 0.00 83 1007.9
20260902050034 80 270 0.9 3.5 0.00 0.00 0.00 83 1008.0
20260902045934 80 180 0.9 3.5 0.00 0.00 0.00 83 1008.1
20260902045834 80 315 0.9 3.5 0.00 0.00 0.00 83 1007.9
20260902045734 80 270 0.9 4.3 0.00 0.00 0.00 83 1007.9
20260902045634 80 45 0.9 5.2 0.00 0.00 0.00 83 1008.0
20260902045534 80 270 0.9 5.2 0.00 0.00 0.00 83 1008.1
20260902045434 80 315 0.9 5.2 0.00 0.00 0.00 83 1007.9
20260902045334 80 315 0.9 5.2 0.00 0.00 0.00 83 1008.0
20260902045234 80 315 0.0 5.2 0.00 0.00 0.00 84 1007.9
20260902045134 80 315 0.0 5.2 0.00 0.00 0.00 84 1008.1
20260902045034 80 45 0.0 5.2 0.00 0.00 0.00 84 1007.9
20260902044934 80 315 0.9 5.2 0.00 0.00 0.00 84 1008.0
20260902044834 80 45 1.7 5.2 0.00 0.00 0.00 84 1008.0
20260902044734 80 270 0.0 5.2 0.00 0.00 0.00 84 1008.0
20260902044634 80 45 0.0 3.5 0.00 0.00 0.00 84 1008.1
20260902044535 80 180 0.0 3.5 0.00 0.00 0.00 84 1008.0
20260902044434 80 270 0.0 3.5 0.00 0.00 0.00 84 1008.0
20260902044334 80 0 0.0 3.5 0.00 0.00 0.00 84 1008.1
20260902044234 80 270 0.0 3.5 0.00 0.00 0.00 84 1008.1
20260902044134 80 270 0.0 3.5 0.00 0.00 0.00 84 1008.2
20260902044034 79 180 0.9 3.5 0.00 0.00 0.00 83 1008.2
20260902043934 80 315 0.9 3.5 0.00 0.00 0.00 83 1008.3
20260902043834 80 45 0.0 2.6 0.00 0.00 0.00 83 1008.2
20260902043734 80 270 0.0 2.6 0.00 0.00 0.00 83 1008.2
20260902043635 80 45 0.0 2.6 0.00 0.00 0.00 83 1008.2
20260902043534 80 180 0.9 2.6 0.00 0.00 0.00 83 1008.3
20260902043434 80 225 0.9 2.6 0.00 0.00 0.00 83 1008.3
20260902043334 80 225 0.0 4.3 0.00 0.00 0.00 83 1008.3
20260902043235 80 45 0.0 4.3 0.00 0.00 0.00 83 1008.2
20260902043134 80 0 0.0 4.3 0.00 0.00 0.00 83 1008.3
20260902043034 80 315 0.9 4.3 0.00 0.00 0.00 83 1008.4
20260902042934 80 45 0.9 4.3 0.00 0.00 0.00 83 1008.5
20260902042834 80 225 0.0 4.3 0.00 0.00 0.00 83 1008.3
20260902042734 80 45 0.9 4.3 0.00 0.00 0.00 82 1008.4
20260902042634 80 45 0.9 4.3 0.00 0.00 0.00 82 1008.2
20260902042534 80 315 1.7 4.3 0.00 0.00 0.00 82 1008.2
20260902042434 80 45 1.7 4.3 0.00 0.00 0.00 82 1008.5
20260902042334 80 315 0.9 4.3 0.00 0.00 0.00 81 1008.2
20260902042234 80 270 0.9 4.3 0.00 0.00 0.00 81 1008.4
20260902042134 80 270 1.7 4.3 0.00 0.00 0.00 81 1008.2
20260902042034 80 45 0.9 4.3 0.00 0.00 0.00 81 1008.2
20260902041934 80 45 0.9 4.3 0.00 0.00 0.00 81 1008.2
20260902041834 81 225 1.7 4.3 0.00 0.00 0.00 81 1008.2
20260902041734 81 270 1.7 4.3 0.00 0.00 0.00 80 1008.1
20260902041634 81 315 2.6 4.3 0.00 0.00 0.00 80 1008.2
20260902041534 81 270 2.6 4.3 0.00 0.00 0.00 80 1008.2
20260902041434 81 315 0.9 4.3 0.00 0.00 0.00 81 1008.1
20260902041334 81 45 0.9 3.5 0.00 0.00 0.00 80 1008.1
20260902041234 81 180 0.9 3.5 0.00 0.00 0.00 80 1008.1
20260902041134 81 180 0.0 2.6 0.00 0.00 0.00 80 1008.1
20260902041034 81 315 0.0 3.5 0.00 0.00 0.00 81 1008.1
20260902040934 81 180 0.0 3.5 0.00 0.00 0.00 81 1007.9
20260902040834 81 270 0.0 3.5 0.00 0.00 0.00 81 1008.0
20260902040734 81 315 0.0 3.5 0.00 0.00 0.00 81 1008.0
20260902040634 81 0 0.0 3.5 0.00 0.00 0.00 81 1008.0
20260902040534 81 315 0.0 3.5 0.00 0.00 0.00 81 1008.1
20260902040434 81 315 0.0 3.5 0.00 0.00 0.00 80 1008.2
20260902040334 81 270 0.0 3.5 0.00 0.00 0.00 80 1008.2
20260902040234 81 225 0.0 3.5 0.00 0.00 0.00 80 1008.1
20260902040134 81 180 0.9 3.5 0.00 0.00 0.00 81 1008.2
20260902040034 81 315 0.9 3.5 0.00 0.00 0.00 81 1008.1
20260902035934 81 180 0.9 3.5 0.00 0.00 0.00 81 1008.1
20260902035834 81 45 0.0 3.5 0.00 0.00 0.00 81 1008.2
20260902035734 81 225 0.0 3.5 0.00 0.00 0.00 80 1008.2
20260902035634 81 180 0.0 3.5 0.00 0.00 0.00 80 1008.0
20260902035534 81 45 0.9 3.5 0.00 0.00 0.00 81 1008.1
20260902035434 81 315 0.9 4.3 0.00 0.00 0.00 81 1008.0
20260902035334 81 45 0.9 6.1 0.00 0.00 0.00 81 1008.0
20260902035234 81 270 0.9 6.1 0.00 0.00 0.00 81 1008.1
20260902035134 81 45 0.9 6.1 0.00 0.00 0.00 80 1008.1
20260902035034 81 315 0.9 6.1 0.00 0.00 0.00 80 1008.2
20260902034934 81 270 0.9 6.1 0.00 0.00 0.00 81 1008.1
20260902034834 81 315 0.9 6.1 0.00 0.00 0.00 81 1008.1
20260902034734 81 0 0.0 6.1 0.00 0.00 0.00 81 1008.0
20260902034634 81 180 0.9 6.1 0.00 0.00 0.00 81 1007.9
20260902034534 81 180 2.6 6.1 0.00 0.00 0.00 81 1008.1
20260902034434 81 225 1.7 6.1 0.00 0.00 0.00 81 1007.9
20260902034334 81 0 0.0 4.3 0.00 0.00 0.00 82 1008.1
20260902034234 81 270 1.7 4.3 0.00 0.00 0.00 82 1007.9
20260902034134 80 270 0.9 4.3 0.00 0.00 0.00 82 1008.2
20260902034033 80 270 0.0 4.3 0.00 0.00 0.00 82 1008.0
20260902033934 80 180 0.9 5.2 0.00 0.00 0.00 82 1008.1
20260902033834 80 315 0.9 5.2 0.00 0.00 0.00 82 1008.1
20260902033734 80 315 0.0 5.2 0.00 0.00 0.00 83 1008.1
20260902033634 80 180 0.9 5.2 0.00 0.00 0.00 82 1008.0
20260902033534 80 45 1.7 5.2 0.00 0.00 0.00 82 1008.1
20260902033434 80 270 0.9 5.2 0.00 0.00 0.00 83 1008.0
20260902033334 80 180 0.0 5.2 0.00 0.00 0.00 83 1008.0
20260902033234 80 315 0.9 5.2 0.00 0.00 0.00 82 1008.1
20260902033134 80 315 2.6 5.2 0.00 0.00 0.00 82 1008.2
20260902033034 80 45 2.6 5.2 0.00 0.00 0.00 82 1008.1
20260902032934 80 315 1.7 5.2 0.00 0.00 0.00 82 1008.0
20260902032834 80 180 0.9 5.2 0.00 0.00 0.00 82 1008.0
20260902032734 80 315 0.9 5.2 0.00 0.00 0.00 82 1008.0
20260902032634 80 45 0.9 5.2 0.00 0.00 0.00 82 1008.2
20260902032533 80 45 0.9 5.2 0.00 0.00 0.00 82 1008.0
20260902032434 79 315 1.7 5.2 0.00 0.00 0.00 82 1008.1
20260902032334 79 180 1.7 5.2 0.00 0.00 0.00 82 1008.2
20260902032234 79 315 0.9 5.2 0.00 0.00 0.00 82 1008.2
20260902032133 79 225 0.0 5.2 0.00 0.00 0.00 82 1008.2
20260902032034 79 315 0.9 5.2 0.00 0.00 0.00 82 1008.2
20260902031933 79 1 5.2 0.0 0.00 0.00 0.00 82 1008.3
20260902031833 0 83 7.0 0.0 0.00 0.00 0.00
20260902031733 79 180 0.9 5.2 0.00 0.00 0.00 81 1008.4
20260902031634 80 315 2.6 5.2 0.00 0.00 0.00 81 1008.2
20260902031534 80 45 1.7 5.2 0.00 0.00 0.00 81 1008.4
20260902031434 80 45 1.7 5.2 0.00 0.00 0.00 82 1008.3
20260902031333 80 270 0.9 5.2 0.00 0.00 0.00 82 1008.4
20260902031234 80 0 0.0 5.2 0.00 0.00 0.00 82 1008.5
20260902031133 80 180 2.6 5.2 0.00 0.00 0.00 81 1008.4
20260902031034 80 45 2.6 5.2 0.00 0.00 0.00 81 1008.5
20260902030933 80 315 1.7 5.2 0.00 0.00 0.00 81 1008.3
20260902030834 80 315 1.7 5.2 0.00 0.00 0.00 81 1008.6
20260902030734 80 45 1.7 5.2 0.00 0.00 0.00 80 1008.5
20260902030634 80 225 1.7 5.2 0.00 0.00 0.00 80 1008.3
20260902030533 80 45 1.7 5.2 0.00 0.00 0.00 80 1008.4
20260902030434 80 45 2.6 5.2 0.00 0.00 0.00 79 1008.4
20260902030333 80 3 5.2 0.0 0.00 0.00 0.00 79 1008.5
20260902030133 81 45 1.7 4.3 0.00 0.00 0.00 79 1008.5
20260902030034 81 315 2.6 4.3 0.00 0.00 0.00 78 1008.6
20260902025934 81 225 0.9 4.3 0.00 0.00 0.00 78 1008.5
20260902025833 81 315 0.0 4.3 0.00 0.00 0.00 78 1008.4
20260902025733 82 225 0.0 4.3 0.00 0.00 0.00 78 1008.3
20260902025634 82 225 0.9 4.3 0.00 0.00 0.00 78 1008.3
20260902025534 82 270 0.9 4.3 0.00 0.00 0.00 78 1008.5
20260902025433 82 45 0.9 5.2 0.00 0.00 0.00 79 1008.2
20260902025334 82 270 0.9 5.2 0.00 0.00 0.00 79 1008.3
20260902025234 82 270 0.9 7.0 0.00 0.00 0.00 80 1008.3
20260902025133 81 270 0.9 7.0 0.00 0.00 0.00 81 1008.2
20260902025033 81 45 0.9 7.0 0.00 0.00 0.00 82 1008.0
20260902024934 81 225 0.9 7.0 0.00 0.00 0.00 82 1007.9
20260902024834 80 315 1.7 7.0 0.00 0.00 0.00 82 1007.8
20260902024733 80 0 1.7 7.0 0.00 0.00 0.00 82 1007.9
20260902024633 80 45 2.6 7.0 0.00 0.00 0.00 82 1008.0
20260902024534 80 270 2.6 7.0 0.00 0.00 0.00 81 1008.0
20260902024434 80 180 2.6 7.0 0.00 0.00 0.00 81 1008.0
20260902024333 80 45 2.6 7.0 0.00 0.00 0.00 81 1008.1
20260902024233 80 315 2.6 5.2 0.00 0.00 0.00 81 1008.2
20260902024134 80 45 1.7 5.2 0.00 0.00 0.00 82 1008.2
20260902024034 80 45 1.7 5.2 0.00 0.00 0.00 82 1008.1
20260902023933 80 45 2.6 5.2 0.00 0.00 0.00 82 1008.1
20260902023833 80 225 1.7 5.2 0.00 0.00 0.00 82 1008.1
20260902023734 79 180 1.7 5.2 0.00 0.00 0.00 82 1008.2
20260902023633 79 0 1.7 5.2 0.00 0.00 0.00 82 1007.9
20260902023533 79 315 2.6 5.2 0.00 0.00 0.00 82 1008.3
20260902023433 79 225 2.6 6.1 0.00 0.00 0.00 82 1008.1
20260902023334 79 315 2.6 6.1 0.00 0.00 0.00 82 1008.1
20260902023233 79 45 1.7 6.1 0.00 0.00 0.00 82 1008.2
20260902023133 79 315 0.9 6.1 0.00 0.00 0.00 82 1008.2
20260902023033 79 315 2.6 6.1 0.00 0.00 0.00 82 1008.3
20260902022934 79 315 2.6 6.1 0.00 0.00 0.00 81 1008.2
20260902022833 79 225 2.6 6.1 0.00 0.00 0.00 81 1008.4
20260902022733 79 45 2.6 6.1 0.00 0.00 0.00 81 1008.3
20260902022633 79 225 2.6 6.1 0.00 0.00 0.00 81 1008.5
20260902022533 80 45 1.7 6.1 0.00 0.00 0.00 81 1008.6
20260902022433 80 270 0.9 5.2 0.00 0.00 0.00 81 1008.4
20260902022333 80 315 0.9 5.2 0.00 0.00 0.00 81 1008.6
20260902022233 80 45 0.9 5.2 0.00 0.00 0.00 81 1008.5
20260902022134 80 45 0.9 5.2 0.00 0.00 0.00 81 1008.5
20260902022034 80 270 1.7 7.8 0.00 0.00 0.00 80 1008.5
20260902021934 80 0 2.6 7.8 0.00 0.00 0.00 80 1008.6
20260902021834 80 45 2.6 7.8 0.00 0.00 0.00 79 1008.6
20260902021734 80 270 1.7 7.8 0.00 0.00 0.00 79 1008.5
20260902021634 80 315 1.7 7.8 0.00 0.00 0.00 80 1008.5
20260902021534 81 45 1.7 7.8 0.00 0.00 0.00 80 1008.6
20260902021434 81 45 1.7 7.8 0.00 0.00 0.00 79 1008.5
20260902021334 81 315 0.9 7.8 0.00 0.00 0.00 79 1008.6
20260902021133 81 45 2.6 7.8 0.00 0.00 0.00 79 1008.4
20260902021034 81 225 2.6 5.2 0.00 0.00 0.00 79 1008.5
20260902020934 81 225 2.6 5.2 0.00 0.00 0.00 80 1008.7
20260902020833 81 225 1.7 5.2 0.00 0.00 0.00 80 1008.4
20260902020733 81 270 1.7 5.2 0.00 0.00 0.00 81 1008.5
20260902020633 80 45 2.6 5.2 0.00 0.00 0.00 81 1008.2
20260902020534 80 45 1.7 5.2 0.00 0.00 0.00 81 1008.4
20260902020433 80 225 1.7 5.2 0.00 0.00 0.00 81 1008.4
20260902020333 80 0 2.6 5.2 0.00 0.00 0.00 81 1008.5
20260902020233 80 0 2.6 5.2 0.00 0.00 0.00 81 1008.3
20260902020133 80 45 2.6 5.2 0.00 0.00 0.00 81 1008.3
20260902020033 80 180 2.6 5.2 0.00 0.00 0.00 81 1008.3
20260902015934 79 225 1.7 5.2 0.00 0.00 0.00 82 1008.5
20260902015833 79 315 1.7 5.2 0.00 0.00 0.00 82 1008.3
20260902015733 79 180 1.7 5.2 0.00 0.00 0.00 82 1008.3
20260902015633 79 45 1.7 5.2 0.00 0.00 0.00 83 1008.3
20260902015533 79 45 1.7 5.2 0.00 0.00 0.00 83 1008.3
20260902015433 79 45 0.9 5.2 0.00 0.00 0.00 83 1008.2
20260902015333 78 180 0.9 4.3 0.00 0.00 0.00 83 1008.3
20260902015233 78 225 0.9 4.3 0.00 0.00 0.00 84 1008.3
20260902015133 78 315 0.9 4.3 0.00 0.00 0.00 84 1008.3
20260902014933 78 180 1.7 5.2 0.00 0.01 0.00 84 1008.3
20260902014833 78 45 1.7 5.2 0.00 0.01 0.00 84 1008.3
20260902014733 77 45 1.7 5.2 0.00 0.01 0.00 84 1008.5
20260902014633 77 270 0.9 5.2 0.00 0.01 0.00 84 1008.5
20260902014533 77 45 0.9 5.2 0.00 0.01 0.00 84 1008.6
20260902014433 77 315 0.9 5.2 0.00 0.01 0.00 84 1008.5
20260902014333 77 270 1.7 5.2 0.00 0.01 0.00 84 1008.5
20260902014233 77 315 1.7 5.2 0.00 0.01 0.00 84 1008.5
20260902014133 77 270 1.7 5.2 0.00 0.01 0.00 84 1008.7
20260902014033 77 45 2.6 5.2 0.00 0.01 0.00 84 1008.6
20260902013933 77 270 1.7 5.2 0.00 0.01 0.00 85 1008.7
20260902013833 77 0 0.9 4.3 0.00 0.01 0.00 85 1008.6
20260902013733 77 45 0.0 4.3 0.00 0.01 0.00 85 1008.6
20260902013633 77 45 0.0 4.3 0.00 0.01 0.00 84 1008.6
20260902013533 77 0 0.9 4.3 0.00 0.01 0.00 84 1008.7
20260902013433 77 225 1.7 4.3 0.00 0.01 0.00 84 1008.7
20260902013333 77 315 1.7 4.3 0.00 0.01 0.00 84 1008.7
20260902013133 77 45 0.9 3.5 0.00 0.01 0.00 84 1008.7
20260902013033 77 45 0.9 3.5 0.00 0.01 0.00 84 1008.8
20260902012933 77 45 0.9 3.5 0.00 0.01 0.00 84 1008.7
20260902012833 77 45 0.9 3.5 0.00 0.01 0.00 84 1008.8
20260902012733 77 45 0.9 3.5 0.00 0.01 0.00 84 1008.8
20260902012633 77 0 0.9 3.5 0.00 0.01 0.00 84 1008.9
20260902012533 77 315 1.7 4.3 0.00 0.01 0.00 84 1008.8
20260902012433 77 225 0.9 4.3 0.00 0.01 0.00 84 1008.8
20260902012333 0 87 5.2 0.0 0.00 0.00 0.00
20260902012233 77 45 0.9 5.2 0.00 0.01 0.00 84 1008.6
20260902012133 77 270 0.9 5.2 0.00 0.01 0.00 84 1008.7
20260902012033 77 315 1.7 5.2 0.00 0.01 0.00 84 1008.7
20260902011933 77 0 0.9 5.2 0.00 0.01 0.00 84 1008.7
20260902011833 77 270 1.7 5.2 0.00 0.01 0.00 84 1008.9
20260902011733 77 45 1.7 5.2 0.00 0.01 0.00 84 1008.8
20260902011633 77 45 2.6 5.2 0.00 0.01 0.00 84 1008.9
20260902011533 77 315 2.6 5.2 0.00 0.01 0.00 84 1008.7
20260902011433 77 45 2.6 5.2 0.00 0.01 0.00 84 1008.6
20260902011333 77 0 1.7 5.2 0.00 0.01 0.00 83 1008.7
20260902011233 77 45 1.7 5.2 0.00 0.01 0.00 83 1008.8
20260902011133 77 315 0.9 5.2 0.00 0.01 0.00 83 1008.9
20260902011033 77 45 0.9 5.2 0.00 0.01 0.00 83 1008.9
20260902010933 77 315 0.9 5.2 0.00 0.01 0.00 83 1008.8
20260902010833 77 45 1.7 4.3 0.00 0.01 0.00 83 1008.9
20260902010733 77 45 0.9 4.3 0.00 0.01 0.00 83 1008.9
20260902010633 77 45 0.0 3.5 0.00 0.01 0.00 83 1009.0
20260902010533 77 180 0.0 3.5 0.00 0.01 0.00 83 1008.9
20260902010433 77 45 0.9 3.5 0.00 0.01 0.00 83 1008.9
20260902010333 77 45 0.9 5.2 0.00 0.01 0.00 83 1008.8
20260902010233 77 180 0.9 5.2 0.00 0.01 0.00 83 1008.8
20260902010133 77 45 0.9 5.2 0.00 0.01 0.00 83 1008.8
20260902010033 77 0 0.9 5.2 0.00 0.01 0.00 83 1008.8
20260902005933 77 45 0.0 5.2 0.00 0.01 0.00 83 1008.8
20260902005833 77 270 0.0 5.2 0.00 0.01 0.00 83 1008.9
20260902005733 77 0 0.0 5.2 0.00 0.01 0.00 82 1009.0
20260902005633 77 0 0.9 5.2 0.00 0.01 0.00 82 1008.8
20260902005533 77 45 2.6 5.2 0.00 0.01 0.00 82 1008.9
20260902005433 77 315 1.7 5.2 0.00 0.01 0.00 82 1008.8
20260902005333 77 45 0.0 4.3 0.00 0.01 0.00 82 1008.9
20260902005233 77 0 0.9 4.3 0.00 0.01 0.00 82 1008.8
20260902005133 77 180 1.7 4.3 0.00 0.01 0.00 82 1008.8
20260902005033 77 180 0.9 5.2 0.00 0.01 0.00 82 1008.8
20260902004933 77 45 0.0 5.2 0.00 0.01 0.00 82 1009.0
20260902004833 77 180 0.9 5.2 0.00 0.01 0.00 82 1008.7
20260902004733 77 270 1.7 5.2 0.00 0.01 0.00 82 1008.8
20260902004633 77 45 1.7 5.2 0.00 0.01 0.00 82 1008.8
20260902004533 77 45 0.9 5.2 0.00 0.01 0.00 82 1008.7
20260902004433 77 45 0.0 5.2 0.00 0.01 0.00 82 1008.7
20260902004333 77 225 0.9 5.2 0.00 0.01 0.00 82 1008.7
20260902004233 77 0 1.7 5.2 0.00 0.01 0.00 82 1008.6
20260902004133 77 1 5.2 0.0 0.00 0.01 0.00 82 1008.7
20260902004032 0 86 3.5 0.0 0.00 0.00 0.00
20260902003933 77 315 2.6 5.2 0.00 0.01 0.00 82 1008.7
20260902003833 77 45 1.7 5.2 0.00 0.01 0.00 82 1008.8
20260902003732 77 45 0.9 5.2 0.00 0.01 0.00 82 1008.6
20260902003633 77 315 1.7 5.2 0.00 0.01 0.00 82 1008.7
20260902003533 77 45 2.6 5.2 0.00 0.01 0.00 82 1008.6
20260902003433 77 45 2.6 5.2 0.00 0.01 0.00 81 1008.6
20260902003333 77 270 1.7 6.1 0.00 0.01 0.00 82 1008.5
20260902003233 77 315 1.7 6.1 0.00 0.01 0.00 82 1008.6
20260902003133 77 0 1.7 6.1 0.00 0.01 0.00 82 1008.6
20260902003033 77 315 1.7 6.1 0.00 0.01 0.00 82 1008.6
20260902002933 77 45 1.7 6.1 0.00 0.01 0.00 82 1008.6
20260902002833 77 45 2.6 6.1 0.00 0.01 0.00 82 1008.5
20260902002733 77 225 2.6 6.1 0.00 0.01 0.00 82 1008.5
20260902002633 77 315 1.7 6.1 0.00 0.01 0.00 83 1008.5
20260902002533 77 45 1.7 6.1 0.00 0.01 0.00 83 1008.6
20260902002433 77 180 2.6 6.1 0.00 0.01 0.00 83 1008.5
20260902002333 77 0 1.7 7.0 0.00 0.01 0.00 83 1008.5
20260902002233 77 315 1.7 7.0 0.00 0.01 0.00 83 1008.5
20260902002133 77 45 1.7 7.0 0.00 0.01 0.00 83 1008.6
20260902002033 76 45 0.9 7.0 0.00 0.01 0.00 83 1008.7
20260902001933 76 45 0.9 7.0 0.00 0.01 0.00 83 1008.6
20260902001833 76 270 1.7 7.0 0.00 0.01 0.00 83 1008.6
20260902001733 76 315 1.7 7.0 0.00 0.01 0.00 83 1008.5
20260902001633 76 315 1.7 7.0 0.00 0.01 0.00 83 1008.6
20260902001533 76 45 2.6 7.0 0.00 0.01 0.00 83 1008.6
20260902001433 76 0 2.6 7.0 0.00 0.01 0.00 83 1008.7
20260902001333 76 45 2.6 5.2 0.00 0.01 0.00 83 1008.6
20260902001233 76 315 1.7 5.2 0.00 0.01 0.00 83 1008.5
20260902001133 76 270 1.7 5.2 0.00 0.01 0.00 83 1008.5
20260902001033 76 270 2.6 5.2 0.00 0.01 0.00 83 1008.6
20260902000933 76 315 1.7 5.2 0.00 0.01 0.00 83 1008.6
20260902000833 76 315 1.7 5.2 0.00 0.01 0.00 83 1008.6
20260902000733 76 270 1.7 5.2 0.00 0.01 0.00 83 1008.6
20260902000633 76 270 1.7 5.2 0.00 0.01 0.00 83 1008.7
20260902000533 76 270 2.6 5.2 0.00 0.01 0.00 83 1008.6
20260902000433 76 45 0.9 4.3 0.00 0.01 0.00 83 1008.5
20260902000333 76 315 0.9 4.3 0.00 0.01 0.00 83 1008.5
20260902000233 76 180 0.9 6.1 0.00 0.01 0.00 84 1008.5
20260902000133 76 180 0.9 6.1 0.00 0.01 0.00 84 1008.6
20260902000033 76 225 1.7 6.1 0.00 0.01 0.00 84 1008.5
20260901235933 76 180 1.7 6.1 0.00 0.01 0.00 84 1008.6
20260901235833 76 270 0.9 6.1 0.00 0.01 0.00 84 1008.5
20260901235732 76 225 0.9 6.1 0.00 0.01 0.00 84 1008.5
20260901235633 76 315 0.0 6.1 0.00 0.01 0.00 84 1008.5
20260901235532 76 1 6.1 0.0 0.00 0.01 0.00 84 1008.6
20260901235433 76 45 1.7 6.1 0.00 0.01 0.00 84 1008.6
20260901235333 76 315 1.7 6.1 0.00 0.01 0.00 84 1008.5
20260901235233 76 45 1.7 5.2 0.00 0.01 0.00 84 1008.4
20260901235133 76 225 1.7 5.2 0.00 0.01 0.00 84 1008.4
20260901235033 76 45 0.0 5.2 0.00 0.01 0.00 84 1008.6
20260901234933 76 270 0.0 5.2 0.00 0.01 0.00 84 1008.5
20260901234832 76 225 0.9 5.2 0.00 0.01 0.00 84 1008.5
20260901234733 76 270 0.0 5.2 0.00 0.01 0.00 84 1008.6
20260901234633 75 270 0.9 5.2 0.00 0.01 0.00 84 1008.5
20260901234533 75 315 1.7 5.2 0.00 0.01 0.00 84 1008.6
20260901234432 75 45 0.9 4.3 0.00 0.01 0.00 84 1008.5
20260901234332 75 0 0.9 4.3 0.00 0.01 0.00 84 1008.5
20260901234233 75 270 0.0 4.3 0.00 0.01 0.00 84 1008.6
20260901234133 75 180 0.0 4.3 0.00 0.01 0.00 84 1008.6
20260901234033 75 315 0.9 4.3 0.00 0.01 0.00 84 1008.6
20260901233932 75 45 1.7 4.3 0.00 0.01 0.00 84 1008.5
20260901233833 75 180 0.9 4.3 0.00 0.01 0.00 84 1008.5
20260901233733 75 315 0.9 4.3 0.00 0.01 0.00 84 1008.5
20260901233633 75 270 1.7 4.3 0.00 0.01 0.00 84 1008.7
20260901233533 75 270 1.7 4.3 0.00 0.01 0.00 84 1008.6
20260901233433 75 45 1.7 4.3 0.00 0.01 0.00 84 1008.6
20260901233333 75 315 0.9 4.3 0.00 0.01 0.00 84 1008.6
20260901233233 75 0 0.9 3.5 0.00 0.01 0.00 84 1008.6
20260901233133 75 0 1.7 3.5 0.00 0.01 0.00 84 1008.6
20260901233033 75 270 1.7 3.5 0.00 0.01 0.00 84 1008.6
20260901232933 75 45 1.7 3.5 0.00 0.01 0.00 84 1008.7
20260901232833 75 45 1.7 3.5 0.00 0.01 0.00 84 1008.7
20260901232733 75 180 0.9 3.5 0.00 0.01 0.00 84 1008.7
20260901232633 75 180 0.0 3.5 0.00 0.01 0.00 84 1008.6
20260901232533 75 315 0.9 5.2 0.00 0.01 0.00 84 1008.6
20260901232433 75 45 0.9 5.2 0.00 0.01 0.00 84 1008.6
20260901232333 75 180 0.9 5.2 0.00 0.01 0.00 84 1008.7
20260901232233 75 270 0.9 5.2 0.00 0.01 0.00 84 1008.9
20260901232133 75 45 0.9 5.2 0.00 0.01 0.00 84 1008.6
20260901232033 75 45 0.9 5.2 0.00 0.01 0.00 84 1008.7
20260901231933 75 315 0.0 5.2 0.00 0.01 0.00 84 1008.8
20260901231833 75 45 0.9 5.2 0.00 0.01 0.00 84 1008.8
20260901231733 75 0 1.7 5.2 0.00 0.01 0.00 84 1008.9
20260901231633 75 225 0.9 5.2 0.00 0.01 0.00 83 1008.7
20260901231533 75 0 1.7 5.2 0.00 0.01 0.00 84 1008.9
20260901231432 75 1 5.2 0.0 0.00 0.01 0.00 84 1008.6
20260901231333 75 45 0.0 4.3 0.00 0.01 0.00 84 1008.7
20260901231233 75 225 0.0 4.3 0.00 0.01 0.00 84 1008.8
20260901231133 75 180 0.0 4.3 0.00 0.01 0.00 84 1008.9
20260901231033 75 270 0.9 4.3 0.00 0.01 0.00 84 1008.9
20260901230932 75 270 1.7 4.3 0.00 0.01 0.00 84 1008.8
20260901230832 75 45 1.7 4.3 0.00 0.01 0.00 84 1009.0
20260901230733 75 270 1.7 4.3 0.00 0.01 0.00 84 1008.9
20260901230633 75 45 1.7 4.3 0.00 0.01 0.00 84 1008.9
20260901230533 75 270 1.7 4.3 0.00 0.01 0.00 84 1008.9
20260901230432 75 225 1.7 4.3 0.00 0.01 0.00 84 1008.9
20260901230232 75 225 0.0 3.5 0.00 0.01 0.00 85 1009.0
20260901230133 75 180 0.0 3.5 0.00 0.01 0.00 85 1008.8
20260901230032 75 315 0.0 3.5 0.00 0.01 0.00 85 1008.9
20260901225932 75 270 0.0 3.5 0.00 0.01 0.00 85 1008.9
20260901225832 75 315 0.9 3.5 0.00 0.01 0.00 85 1008.8
20260901225732 75 225 1.7 3.5 0.00 0.01 0.00 85 1008.7
20260901225633 75 45 0.9 3.5 0.00 0.01 0.00 85 1008.8
20260901225532 75 270 0.0 3.5 0.00 0.01 0.00 85 1008.9
20260901225432 75 315 0.0 3.5 0.00 0.01 0.00 85 1008.9
20260901225232 74 225 0.0 3.5 0.00 0.01 0.00 85 1009.0
20260901225132 74 270 0.9 3.5 0.00 0.01 0.00 85 1009.0
20260901225032 74 315 0.0 3.5 0.00 0.01 0.00 85 1008.9
20260901224932 74 315 0.0 4.3 0.00 0.01 0.00 85 1008.9
20260901224832 74 315 0.9 4.3 0.00 0.01 0.00 85 1008.9
20260901224732 74 45 1.7 4.3 0.00 0.01 0.00 85 1008.9
20260901224632 74 270 0.9 4.3 0.00 0.01 0.00 85 1008.8
20260901224532 74 180 0.9 4.3 0.00 0.01 0.00 85 1008.9
20260901224432 74 0 1.7 4.3 0.00 0.01 0.00 85 1008.8
20260901224332 74 45 1.7 4.3 0.00 0.01 0.00 85 1009.0
20260901224232 74 45 0.9 4.3 0.00 0.01 0.00 85 1008.9
20260901224132 74 315 0.9 4.3 0.00 0.01 0.00 85 1008.9
20260901224032 74 45 0.9 4.3 0.00 0.01 0.00 85 1008.9
20260901223932 74 315 0.0 4.3 0.00 0.01 0.00 86 1008.8
20260901223832 74 45 0.9 4.3 0.00 0.01 0.00 86 1008.9
20260901223632 74 45 0.9 3.5 0.00 0.01 0.00 86 1008.8
20260901223532 74 0 0.9 3.5 0.00 0.01 0.00 86 1008.7
20260901223432 74 45 0.9 3.5 0.00 0.01 0.00 86 1008.7
20260901223332 74 270 0.9 4.3 0.00 0.01 0.00 86 1008.7
20260901223232 74 315 1.7 4.3 0.00 0.01 0.00 86 1008.8
20260901223132 74 0 0.9 4.3 0.00 0.01 0.00 86 1008.9
20260901223032 74 45 0.0 4.3 0.00 0.01 0.00 86 1009.0
20260901222932 74 0 0.9 4.3 0.00 0.01 0.00 86 1008.7
20260901222832 74 315 0.9 4.3 0.00 0.01 0.00 86 1008.6
20260901222732 74 45 0.9 4.3 0.00 0.01 0.00 86 1008.7
20260901222632 74 270 0.9 4.3 0.00 0.01 0.00 86 1008.6
20260901222532 74 45 0.9 4.3 0.00 0.01 0.00 86 1008.7
20260901222432 74 45 0.9 5.2 0.00 0.01 0.00 86 1008.8
20260901222332 74 270 0.9 5.2 0.00 0.01 0.00 86 1008.7
20260901222232 74 0 0.9 5.2 0.00 0.01 0.00 86 1008.7
20260901222132 74 45 0.9 5.2 0.00 0.01 0.00 86 1008.6
20260901222032 74 0 0.0 5.2 0.00 0.01 0.00 87 1008.8
20260901221932 74 180 0.0 5.2 0.00 0.01 0.00 87 1008.6
20260901221832 74 270 0.0 5.2 0.00 0.01 0.00 87 1008.7
20260901221732 74 0 0.0 5.2 0.00 0.01 0.00 87 1008.6
20260901221632 74 45 0.9 5.2 0.00 0.01 0.00 87 1008.6
20260901221532 74 45 1.7 5.2 0.00 0.01 0.00 87 1008.6
20260901221432 74 45 0.0 5.2 0.00 0.01 0.00 87 1008.6
20260901221332 74 45 0.0 5.2 0.00 0.01 0.00 87 1008.6
20260901221232 74 225 0.0 5.2 0.00 0.01 0.00 87 1008.6
20260901221132 74 45 0.9 5.2 0.00 0.01 0.00 87 1008.5
20260901221032 74 315 0.9 5.2 0.00 0.01 0.00 87 1008.6
20260901220932 74 45 0.9 5.2 0.00 0.01 0.00 87 1008.7
20260901220832 74 45 0.9 5.2 0.00 0.01 0.00 87 1008.6
20260901220732 74 270 0.9 5.2 0.00 0.01 0.00 87 1008.5
20260901220632 74 315 1.7 5.2 0.00 0.01 0.00 87 1008.6
20260901220532 74 45 1.7 5.2 0.00 0.01 0.00 87 1008.7
20260901220432 74 270 0.9 5.2 0.00 0.01 0.00 87 1008.6
20260901220332 74 45 0.0 5.2 0.00 0.01 0.00 87 1008.6
20260901220232 74 45 0.0 5.2 0.00 0.01 0.00 87 1008.6
20260901220132 74 180 0.9 5.2 0.00 0.01 0.00 87 1008.6
20260901220032 74 270 0.9 5.2 0.00 0.01 0.00 87 1008.8
20260901215932 74 315 0.9 5.2 0.00 0.01 0.00 87 1008.6
20260901215832 74 315 2.6 5.2 0.00 0.01 0.00 87 1008.6
20260901215732 74 270 1.7 5.2 0.00 0.01 0.00 87 1008.6
20260901215632 74 45 0.0 2.6 0.00 0.01 0.00 87 1008.7
20260901215532 74 180 0.0 2.6 0.00 0.01 0.00 87 1008.7
20260901215432 74 0 0.9 2.6 0.00 0.01 0.00 87 1008.6
20260901215332 74 270 0.9 2.6 0.00 0.01 0.00 87 1008.8
20260901215232 74 315 0.0 2.6 0.00 0.01 0.00 87 1008.6
20260901215132 74 45 0.0 5.2 0.00 0.01 0.00 87 1008.7
20260901215032 74 315 0.0 5.2 0.00 0.01 0.00 87 1008.6
20260901214932 74 180 0.0 5.2 0.00 0.01 0.00 87 1008.6
20260901214832 74 180 0.9 5.2 0.00 0.01 0.00 87 1008.7
20260901214732 74 270 0.9 5.2 0.00 0.01 0.00 87 1008.6
20260901214632 74 45 0.9 5.2 0.00 0.01 0.00 87 1008.5
20260901214532 74 180 0.9 5.2 0.00 0.01 0.00 86 1008.6
20260901214432 74 315 1.7 5.2 0.00 0.01 0.00 86 1008.4
20260901214332 74 315 1.7 5.2 0.00 0.01 0.00 86 1008.5
20260901214232 74 45 1.7 5.2 0.00 0.01 0.00 87 1008.6
20260901214132 74 270 1.7 5.2 0.00 0.01 0.00 86 1008.7
20260901214032 74 315 2.6 5.2 0.00 0.01 0.00 86 1008.7
20260901213932 74 45 1.7 3.5 0.00 0.01 0.00 86 1008.7
20260901213832 74 315 1.7 3.5 0.00 0.01 0.00 87 1008.6
20260901213732 74 45 1.7 3.5 0.00 0.01 0.00 87 1008.7
20260901213632 74 270 0.9 3.5 0.00 0.01 0.00 87 1008.6
20260901213532 74 45 1.7 3.5 0.00 0.01 0.00 87 1008.6
20260901213432 74 45 0.9 3.5 0.00 0.01 0.00 87 1008.6
20260901213332 74 0 0.0 3.5 0.00 0.01 0.00 87 1008.5
20260901213232 74 270 0.0 4.3 0.00 0.01 0.00 87 1008.6
20260901213132 74 45 0.9 4.3 0.00 0.01 0.00 87 1008.6